Time,TemperatureF,DewpointF,PressureIn,WindDirection,WindDirectionDegrees,WindSpeedMPH,WindSpeedGustMPH,Humidity,HourlyPrecipIn,Conditions,Clouds,dailyrainin,SoftwareType,DateUTC
2013-05-29 00:03:00,61.9,61.3,25.28,WSW,240,0.0,0.0,98,0.00,,---,0.00,VWS V14.01,2013-05-29 06:03:00,
2013-05-29 00:05:00,61.7,61.1,25.28,WSW,240,0.0,0.0,98,0.00,,---,0.00,VWS V14.01,2013-05-29 06:05:00,
2013-05-29 00:06:00,61.7,61.1,25.28,WSW,240,0.0,0.0,98,0.00,,---,0.00,VWS V14.01,2013-05-29 06:06:00,
2013-05-29 00:08:00,61.7,61.1,25.28,WSW,240,0.0,0.0,98,0.00,,---,0.00,VWS V14.01,2013-05-29 06:08:00,
2013-05-29 00:09:00,61.7,61.1,25.28,SE,146,0.0,0.0,98,0.00,,---,0.00,VWS V14.01,2013-05-29 06:09:00,
2013-05-29 00:10:00,61.7,61.1,25.28,SE,144,0.0,0.0,98,0.00,,---,0.00,VWS V14.01,2013-05-29 06:10:00,
2013-05-29 00:11:00,61.7,61.1,25.28,SSW,195,0.0,0.0,98,0.00,,---,0.00,VWS V14.01,2013-05-29 06:11:00,
2013-05-29 00:14:00,61.5,61.0,25.28,SSW,192,0.0,0.0,98,0.00,,---,0.00,VWS V14.01,2013-05-29 06:14:00,
2013-05-29 00:16:00,61.5,61.0,25.28,SSW,192,0.0,0.0,98,0.00,,---,0.00,VWS V14.01,2013-05-29 06:16:00,
2013-05-29 00:17:00,61.5,61.0,25.28,SSW,192,0.0,0.0,98,0.00,,---,0.00,VWS V14.01,2013-05-29 06:17:00,
2013-05-29 00:19:00,61.7,61.1,25.28,SSW,192,0.0,0.0,98,0.00,,---,0.00,VWS V14.01,2013-05-29 06:19:00,
2013-05-29 00:21:00,61.7,61.1,25.28,SSW,192,0.0,0.0,98,0.00,,---,0.00,VWS V14.01,2013-05-29 06:21:00,
2013-05-29 00:22:00,61.7,61.1,25.28,SSW,192,0.0,0.0,98,0.00,,---,0.00,VWS V14.01,2013-05-29 06:22:00,
2013-05-29 00:26:00,61.5,61.0,25.28,SSW,192,0.0,0.0,98,0.00,,---,0.00,VWS V14.01,2013-05-29 06:26:00,
2013-05-29 00:27:00,61.5,61.0,25.28,SSW,192,0.0,0.0,98,0.00,,---,0.00,VWS V14.01,2013-05-29 06:27:00,
2013-05-29 00:28:00,61.5,61.0,25.28,SSW,192,0.0,0.0,98,0.00,,---,0.00,VWS V14.01,2013-05-29 06:28:00,
2013-05-29 00:29:00,61.3,60.8,25.28,SSW,192,0.0,0.0,98,0.00,,---,0.00,VWS V14.01,2013-05-29 06:29:00,
2013-05-29 00:34:00,61.3,60.8,25.28,SSW,192,0.0,0.0,98,0.00,,---,0.00,VWS V14.01,2013-05-29 06:34:00,
2013-05-29 00:36:00,61.3,60.8,25.28,SSW,192,0.0,0.0,98,0.00,,---,0.00,VWS V14.01,2013-05-29 06:36:00,
2013-05-29 00:37:00,61.2,60.6,25.28,SSW,192,0.0,0.0,98,0.00,,---,0.00,VWS V14.01,2013-05-29 06:37:00,
2013-05-29 00:40:00,61.3,60.8,25.28,SSW,205,0.0,0.0,98,0.00,,---,0.00,VWS V14.01,2013-05-29 06:40:00,
2013-05-29 00:41:00,61.3,60.8,25.28,SSW,205,0.0,0.0,98,0.00,,---,0.00,VWS V14.01,2013-05-29 06:41:00,
2013-05-29 00:42:00,61.3,60.8,25.28,SSW,208,0.0,0.0,98,0.00,,---,0.00,VWS V14.01,2013-05-29 06:42:00,
2013-05-29 00:43:00,61.3,60.8,25.28,SSW,208,0.0,0.0,98,0.00,,---,0.00,VWS V14.01,2013-05-29 06:43:00,
2013-05-29 00:46:00,61.3,60.8,25.28,SSW,208,0.0,0.0,98,0.00,,---,0.00,VWS V14.01,2013-05-29 06:46:00,
2013-05-29 00:48:00,61.3,60.8,25.25,SSW,208,0.0,0.0,98,0.00,,---,0.00,VWS V14.01,2013-05-29 06:48:00,
2013-05-29 00:49:00,61.3,60.8,25.25,SSW,208,0.0,0.0,98,0.00,,---,0.00,VWS V14.01,2013-05-29 06:49:00,
2013-05-29 00:50:00,61.3,60.8,25.25,SSW,208,0.0,0.0,98,0.00,,---,0.00,VWS V14.01,2013-05-29 06:50:00,
2013-05-29 00:53:00,61.3,60.8,25.25,SSW,208,0.0,0.0,98,0.00,,---,0.00,VWS V14.01,2013-05-29 06:53:00,
2013-05-29 00:54:00,61.3,60.8,25.25,SSW,208,0.0,0.0,98,0.00,,---,0.00,VWS V14.01,2013-05-29 06:54:00,
2013-05-29 00:56:00,61.3,60.8,25.25,SSW,208,0.0,0.0,98,0.00,,---,0.00,VWS V14.01,2013-05-29 06:56:00,
2013-05-29 01:00:00,61.2,60.6,25.25,SSW,208,0.0,0.0,98,0.00,,---,0.00,VWS V14.01,2013-05-29 07:00:00,
2013-05-29 01:01:00,61.0,60.4,25.25,SSW,208,0.0,0.0,98,0.00,,---,0.00,VWS V14.01,2013-05-29 07:01:00,
2013-05-29 01:02:00,61.0,60.4,25.25,SSW,208,0.0,0.0,98,0.00,,---,0.00,VWS V14.01,2013-05-29 07:02:00,
2013-05-29 01:07:00,61.0,60.4,25.25,SSW,208,0.0,0.0,98,0.00,,---,0.00,VWS V14.01,2013-05-29 07:07:00,
2013-05-29 01:09:00,60.8,60.2,25.25,SSW,199,0.0,0.0,98,0.00,,---,0.00,VWS V14.01,2013-05-29 07:09:00,
2013-05-29 01:11:00,60.8,60.2,25.25,SSW,199,0.0,0.0,98,0.00,,---,0.00,VWS V14.01,2013-05-29 07:11:00,
2013-05-29 01:12:00,60.8,60.2,25.25,SSW,199,0.0,0.0,98,0.00,,---,0.00,VWS V14.01,2013-05-29 07:12:00,
2013-05-29 01:13:00,60.8,60.2,25.25,SSW,199,0.0,0.0,98,0.00,,---,0.00,VWS V14.01,2013-05-29 07:13:00,
2013-05-29 01:18:00,60.6,60.1,25.25,SSW,205,3.6,4.9,98,0.00,,---,0.00,VWS V14.01,2013-05-29 07:18:00,
2013-05-29 01:19:00,60.6,60.1,25.25,SSW,200,2.2,3.6,98,0.00,,---,0.00,VWS V14.01,2013-05-29 07:19:00,
2013-05-29 01:22:00,60.8,60.2,25.25,SSW,207,0.0,0.0,98,0.00,,---,0.00,VWS V14.01,2013-05-29 07:22:00,
2013-05-29 01:23:00,60.8,60.2,25.25,SSW,209,0.0,0.0,98,0.00,,---,0.00,VWS V14.01,2013-05-29 07:23:00,
2013-05-29 01:26:00,61.0,60.4,25.25,SW,225,3.1,3.1,98,0.00,,---,0.00,VWS V14.01,2013-05-29 07:26:00,
2013-05-29 01:27:00,61.0,60.4,25.25,SW,226,3.6,3.6,98,0.00,,---,0.00,VWS V14.01,2013-05-29 07:27:00,
2013-05-29 01:28:00,61.0,60.4,25.25,SW,228,2.7,3.6,98,0.00,,---,0.00,VWS V14.01,2013-05-29 07:28:00,
2013-05-29 01:31:00,61.0,60.4,25.25,SW,228,2.2,2.7,98,0.00,,---,0.00,VWS V14.01,2013-05-29 07:31:00,
2013-05-29 01:35:00,61.0,60.4,25.25,SW,231,0.0,0.0,98,0.00,,---,0.00,VWS V14.01,2013-05-29 07:35:00,
2013-05-29 01:36:00,61.0,60.4,25.25,SW,231,0.0,0.0,98,0.00,,---,0.00,VWS V14.01,2013-05-29 07:36:00,
2013-05-29 01:37:00,61.0,60.4,25.25,SW,231,0.0,0.0,98,0.00,,---,0.00,VWS V14.01,2013-05-29 07:37:00,
2013-05-29 01:40:00,61.0,60.4,25.25,SW,231,0.0,0.0,98,0.00,,---,0.00,VWS V14.01,2013-05-29 07:40:00,
2013-05-29 01:42:00,61.0,60.4,25.25,SW,231,0.0,0.0,98,0.00,,---,0.00,VWS V14.01,2013-05-29 07:42:00,
2013-05-29 01:45:00,61.0,60.4,25.25,SW,231,0.0,0.0,98,0.00,,---,0.00,VWS V14.01,2013-05-29 07:45:00,
2013-05-29 01:49:00,61.0,60.1,25.25,SSW,213,0.0,0.0,97,0.00,,---,0.00,VWS V14.01,2013-05-29 07:49:00,
2013-05-29 01:50:00,61.0,60.1,25.25,SSW,213,0.0,0.0,97,0.00,,---,0.00,VWS V14.01,2013-05-29 07:50:00,
2013-05-29 01:52:00,61.0,60.1,25.25,SSW,213,0.0,0.0,97,0.00,,---,0.00,VWS V14.01,2013-05-29 07:52:00,
2013-05-29 01:54:00,61.2,60.3,25.25,SSW,212,0.0,0.0,97,0.00,,---,0.00,VWS V14.01,2013-05-29 07:54:00,
2013-05-29 01:55:00,61.2,60.3,25.25,SSW,212,0.0,0.0,97,0.00,,---,0.00,VWS V14.01,2013-05-29 07:55:00,
2013-05-29 01:57:00,61.2,60.3,25.25,SSW,213,0.0,0.0,97,0.00,,---,0.00,VWS V14.01,2013-05-29 07:57:00,
2013-05-29 01:58:00,61.2,60.3,25.25,SSW,213,0.0,0.0,97,0.00,,---,0.00,VWS V14.01,2013-05-29 07:58:00,
2013-05-29 01:59:00,61.2,60.3,25.25,SSW,213,0.0,0.0,97,0.00,,---,0.00,VWS V14.01,2013-05-29 07:59:00,
2013-05-29 02:04:00,61.0,60.1,25.25,SSW,205,0.0,0.0,97,0.00,,---,0.00,VWS V14.01,2013-05-29 08:04:00,
2013-05-29 02:05:00,61.0,60.1,25.25,SSW,202,2.7,2.7,97,0.00,,---,0.00,VWS V14.01,2013-05-29 08:05:00,
2013-05-29 02:06:00,61.0,60.1,25.25,SSW,202,2.2,2.7,97,0.00,,---,0.00,VWS V14.01,2013-05-29 08:06:00,
2013-05-29 02:08:00,61.0,59.8,25.25,SSW,197,2.2,2.7,96,0.00,,---,0.00,VWS V14.01,2013-05-29 08:08:00,
2013-05-29 02:10:00,61.0,59.8,25.25,SSW,209,0.0,0.0,96,0.00,,---,0.00,VWS V14.01,2013-05-29 08:10:00,
2013-05-29 02:13:00,61.0,59.8,25.25,SSW,209,0.0,0.0,96,0.00,,---,0.00,VWS V14.01,2013-05-29 08:13:00,
2013-05-29 02:15:00,61.0,59.8,25.25,SSW,209,0.0,0.0,96,0.00,,---,0.00,VWS V14.01,2013-05-29 08:15:00,
2013-05-29 02:16:00,60.8,59.7,25.25,SSW,209,0.0,0.0,96,0.00,,---,0.00,VWS V14.01,2013-05-29 08:16:00,
2013-05-29 02:18:00,60.8,59.7,25.25,SSW,209,0.0,0.0,96,0.00,,---,0.00,VWS V14.01,2013-05-29 08:18:00,
2013-05-29 02:19:00,60.8,59.7,25.25,SSW,209,0.0,0.0,96,0.00,,---,0.00,VWS V14.01,2013-05-29 08:19:00,
2013-05-29 02:21:00,60.8,59.7,25.25,SSW,209,0.0,0.0,96,0.00,,---,0.00,VWS V14.01,2013-05-29 08:21:00,
2013-05-29 02:23:00,60.8,59.7,25.25,SSW,209,0.0,0.0,96,0.00,,---,0.00,VWS V14.01,2013-05-29 08:23:00,
2013-05-29 02:27:00,60.8,59.7,25.25,SSW,213,2.2,2.2,96,0.00,,---,0.00,VWS V14.01,2013-05-29 08:27:00,
2013-05-29 02:28:00,60.8,59.7,25.25,SSW,213,0.0,2.2,96,0.00,,---,0.00,VWS V14.01,2013-05-29 08:28:00,
2013-05-29 02:31:00,61.0,59.5,25.25,SW,217,0.0,2.7,95,0.00,,---,0.00,VWS V14.01,2013-05-29 08:31:00,
2013-05-29 02:33:00,61.0,59.5,25.25,SW,217,0.0,0.0,95,0.00,,---,0.00,VWS V14.01,2013-05-29 08:33:00,
2013-05-29 02:34:00,61.0,59.5,25.25,SW,217,0.0,0.0,95,0.00,,---,0.00,VWS V14.01,2013-05-29 08:34:00,
2013-05-29 02:38:00,60.8,59.4,25.22,SSE,160,0.0,0.0,95,0.00,,---,0.00,VWS V14.01,2013-05-29 08:38:00,
2013-05-29 02:39:00,60.8,59.4,25.22,SSE,160,0.0,0.0,95,0.00,,---,0.00,VWS V14.01,2013-05-29 08:39:00,
2013-05-29 02:40:00,60.8,59.4,25.22,SSE,160,0.0,0.0,95,0.00,,---,0.00,VWS V14.01,2013-05-29 08:40:00,
2013-05-29 02:45:00,60.8,59.4,25.22,SW,224,0.0,0.0,95,0.00,,---,0.00,VWS V14.01,2013-05-29 08:45:00,
2013-05-29 02:49:00,60.8,59.1,25.22,SW,224,0.0,0.0,94,0.00,,---,0.00,VWS V14.01,2013-05-29 08:49:00,
2013-05-29 02:51:00,60.8,59.1,25.22,SW,224,0.0,0.0,94,0.00,,---,0.00,VWS V14.01,2013-05-29 08:51:00,
2013-05-29 02:52:00,60.8,59.1,25.22,SW,224,0.0,0.0,94,0.00,,---,0.00,VWS V14.01,2013-05-29 08:52:00,
2013-05-29 02:54:00,60.6,58.9,25.22,SW,224,0.0,0.0,94,0.00,,---,0.00,VWS V14.01,2013-05-29 08:54:00,
2013-05-29 02:57:00,60.6,58.9,25.22,SW,224,0.0,0.0,94,0.00,,---,0.00,VWS V14.01,2013-05-29 08:57:00,
2013-05-29 02:58:00,60.6,58.9,25.22,SW,224,0.0,0.0,94,0.00,,---,0.00,VWS V14.01,2013-05-29 08:58:00,
2013-05-29 03:03:00,60.6,58.9,25.22,SW,224,0.0,0.0,94,0.00,,---,0.00,VWS V14.01,2013-05-29 09:03:00,
2013-05-29 03:04:00,60.6,58.9,25.22,SW,224,0.0,0.0,94,0.00,,---,0.00,VWS V14.01,2013-05-29 09:04:00,
2013-05-29 03:08:00,60.6,58.9,25.22,South,180,0.0,0.0,94,0.00,,---,0.00,VWS V14.01,2013-05-29 09:08:00,
2013-05-29 03:09:00,60.6,58.9,25.22,South,180,0.0,0.0,94,0.00,,---,0.00,VWS V14.01,2013-05-29 09:09:00,
2013-05-29 03:12:00,60.6,58.9,25.22,South,180,0.0,0.0,94,0.00,,---,0.00,VWS V14.01,2013-05-29 09:12:00,
2013-05-29 03:14:00,60.4,58.7,25.22,SSE,150,2.7,2.7,94,0.00,,---,0.00,VWS V14.01,2013-05-29 09:14:00,
2013-05-29 03:15:00,60.4,58.7,25.22,SSW,193,0.0,2.7,94,0.00,,---,0.00,VWS V14.01,2013-05-29 09:15:00,
2013-05-29 03:18:00,60.4,58.7,25.22,SSW,194,0.0,0.0,94,0.00,,---,0.00,VWS V14.01,2013-05-29 09:18:00,
2013-05-29 03:20:00,60.4,58.7,25.22,SSW,194,0.0,0.0,94,0.00,,---,0.00,VWS V14.01,2013-05-29 09:20:00,
2013-05-29 03:21:00,60.4,58.4,25.22,SSW,194,2.7,2.7,93,0.00,,---,0.00,VWS V14.01,2013-05-29 09:21:00,
2013-05-29 03:25:00,60.4,58.4,25.22,SSW,198,0.0,0.0,93,0.00,,---,0.00,VWS V14.01,2013-05-29 09:25:00,
2013-05-29 03:27:00,60.6,58.6,25.22,SSW,204,0.0,0.0,93,0.00,,---,0.00,VWS V14.01,2013-05-29 09:27:00,
2013-05-29 03:28:00,60.6,58.6,25.22,SSW,204,0.0,0.0,93,0.00,,---,0.00,VWS V14.01,2013-05-29 09:28:00,
2013-05-29 03:30:00,60.6,58.6,25.22,SSW,204,0.0,0.0,93,0.00,,---,0.00,VWS V14.01,2013-05-29 09:30:00,
2013-05-29 03:31:00,60.6,58.6,25.22,SSW,204,0.0,0.0,93,0.00,,---,0.00,VWS V14.01,2013-05-29 09:31:00,
2013-05-29 03:34:00,60.6,58.6,25.22,SSW,207,0.0,2.2,93,0.00,,---,0.00,VWS V14.01,2013-05-29 09:34:00,
2013-05-29 03:35:00,60.6,58.6,25.22,SSW,207,0.0,0.0,93,0.00,,---,0.00,VWS V14.01,2013-05-29 09:35:00,
2013-05-29 03:36:00,60.6,58.6,25.22,SSW,207,0.0,0.0,93,0.00,,---,0.00,VWS V14.01,2013-05-29 09:36:00,
2013-05-29 03:37:00,60.8,58.5,25.22,SSW,207,0.0,0.0,92,0.00,,---,0.00,VWS V14.01,2013-05-29 09:37:00,
2013-05-29 03:40:00,60.8,58.5,25.22,SW,221,0.0,0.0,92,0.00,,---,0.00,VWS V14.01,2013-05-29 09:40:00,
2013-05-29 03:41:00,61.0,58.6,25.22,SW,221,0.0,0.0,92,0.00,,---,0.00,VWS V14.01,2013-05-29 09:41:00,
2013-05-29 03:42:00,61.0,58.6,25.22,SSW,213,0.0,0.0,92,0.00,,---,0.00,VWS V14.01,2013-05-29 09:42:00,
2013-05-29 03:43:00,61.0,58.6,25.22,SSW,213,0.0,0.0,92,0.00,,---,0.00,VWS V14.01,2013-05-29 09:43:00,
2013-05-29 03:45:00,61.0,58.3,25.22,SSW,209,2.2,2.2,91,0.00,,---,0.00,VWS V14.01,2013-05-29 09:45:00,
2013-05-29 03:46:00,61.0,58.3,25.22,SSW,209,2.7,2.7,91,0.00,,---,0.00,VWS V14.01,2013-05-29 09:46:00,
2013-05-29 03:48:00,61.0,58.3,25.22,SW,218,2.2,2.2,91,0.00,,---,0.00,VWS V14.01,2013-05-29 09:48:00,
2013-05-29 03:51:00,61.0,58.3,25.22,SSW,210,3.1,3.1,91,0.00,,---,0.00,VWS V14.01,2013-05-29 09:51:00,
2013-05-29 03:55:00,61.0,58.0,25.22,SSW,213,2.7,3.1,90,0.00,,---,0.00,VWS V14.01,2013-05-29 09:55:00,
2013-05-29 03:56:00,61.2,58.2,25.22,SW,216,2.7,2.7,90,0.00,,---,0.00,VWS V14.01,2013-05-29 09:56:00,
2013-05-29 03:57:00,61.2,58.2,25.22,SW,222,3.1,3.1,90,0.00,,---,0.00,VWS V14.01,2013-05-29 09:57:00,
2013-05-29 04:01:00,61.3,58.1,25.22,SSW,210,0.0,0.0,89,0.00,,---,0.00,VWS V14.01,2013-05-29 10:01:00,
2013-05-29 04:02:00,61.3,58.1,25.22,SSW,210,0.0,0.0,89,0.00,,---,0.00,VWS V14.01,2013-05-29 10:02:00,
2013-05-29 04:03:00,61.2,57.9,25.22,SE,143,0.0,0.0,89,0.00,,---,0.00,VWS V14.01,2013-05-29 10:03:00,
2013-05-29 04:06:00,61.0,57.7,25.22,SSW,198,0.0,0.0,89,0.00,,---,0.00,VWS V14.01,2013-05-29 10:06:00,
2013-05-29 04:08:00,61.0,57.4,25.22,SSW,198,0.0,0.0,88,0.00,,---,0.00,VWS V14.01,2013-05-29 10:08:00,
2013-05-29 04:10:00,60.8,57.2,25.22,SSW,198,0.0,0.0,88,0.00,,---,0.00,VWS V14.01,2013-05-29 10:10:00,
2013-05-29 04:13:00,60.6,57.4,25.22,SSW,198,0.0,0.0,89,0.00,,---,0.00,VWS V14.01,2013-05-29 10:13:00,
2013-05-29 04:14:00,60.6,57.4,25.22,SSW,198,0.0,0.0,89,0.00,,---,0.00,VWS V14.01,2013-05-29 10:14:00,
2013-05-29 04:17:00,60.6,57.4,25.22,SSW,198,0.0,0.0,89,0.00,,---,0.00,VWS V14.01,2013-05-29 10:17:00,
2013-05-29 04:20:00,60.6,57.4,25.22,South,178,0.0,0.0,89,0.00,,---,0.00,VWS V14.01,2013-05-29 10:20:00,
2013-05-29 04:21:00,60.6,57.7,25.22,SSW,194,2.2,2.2,90,0.00,,---,0.00,VWS V14.01,2013-05-29 10:21:00,
2013-05-29 04:22:00,60.6,57.7,25.22,SSW,194,0.0,2.2,90,0.00,,---,0.00,VWS V14.01,2013-05-29 10:22:00,
2013-05-29 04:26:00,60.6,57.7,25.22,SW,216,0.0,0.0,90,0.00,,---,0.00,VWS V14.01,2013-05-29 10:26:00,
2013-05-29 04:27:00,60.6,57.7,25.22,SW,216,0.0,0.0,90,0.00,,---,0.00,VWS V14.01,2013-05-29 10:27:00,
2013-05-29 04:31:00,60.6,57.7,25.22,SSW,212,0.0,0.0,90,0.00,,---,0.00,VWS V14.01,2013-05-29 10:31:00,
2013-05-29 04:33:00,60.6,57.7,25.22,SW,227,0.0,3.1,90,0.00,,---,0.00,VWS V14.01,2013-05-29 10:33:00,
2013-05-29 04:35:00,60.6,57.7,25.22,SSW,210,2.7,2.7,90,0.00,,---,0.00,VWS V14.01,2013-05-29 10:35:00,
2013-05-29 04:38:00,60.8,57.8,25.22,SW,230,2.7,2.7,90,0.00,,---,0.00,VWS V14.01,2013-05-29 10:38:00,
2013-05-29 04:40:00,61.0,58.0,25.22,SW,224,2.2,3.1,90,0.00,,---,0.00,VWS V14.01,2013-05-29 10:40:00,
2013-05-29 04:43:00,61.2,58.2,25.22,SW,230,2.7,2.7,90,0.00,,---,0.00,VWS V14.01,2013-05-29 10:43:00,
2013-05-29 04:45:00,61.2,57.9,25.22,SW,221,3.1,3.1,89,0.00,,---,0.00,VWS V14.01,2013-05-29 10:45:00,
2013-05-29 04:46:00,61.2,57.9,25.22,SW,221,3.1,3.1,89,0.00,,---,0.00,VWS V14.01,2013-05-29 10:46:00,
2013-05-29 04:48:00,61.3,57.8,25.22,SW,216,2.7,3.1,88,0.00,,---,0.00,VWS V14.01,2013-05-29 10:48:00,
2013-05-29 04:49:00,61.3,57.8,25.22,SW,216,2.7,2.7,88,0.00,,---,0.00,VWS V14.01,2013-05-29 10:49:00,
2013-05-29 04:53:00,61.5,57.9,25.22,SW,216,0.0,0.0,88,0.00,,---,0.00,VWS V14.01,2013-05-29 10:53:00,
2013-05-29 04:55:00,61.3,57.4,25.22,SW,216,0.0,0.0,87,0.00,,---,0.00,VWS V14.01,2013-05-29 10:55:00,
2013-05-29 04:59:00,61.3,57.4,25.22,SW,233,2.7,2.7,87,0.00,,---,0.00,VWS V14.01,2013-05-29 10:59:00,
2013-05-29 05:00:00,61.3,57.4,25.22,SW,215,2.7,2.7,87,0.00,,---,0.00,VWS V14.01,2013-05-29 11:00:00,
2013-05-29 05:01:00,61.3,57.4,25.22,SW,220,2.2,3.1,87,0.00,,---,0.00,VWS V14.01,2013-05-29 11:01:00,
2013-05-29 05:02:00,61.3,57.4,25.22,SW,220,2.2,2.2,87,0.00,,---,0.00,VWS V14.01,2013-05-29 11:02:00,
2013-05-29 05:07:00,61.5,57.6,25.22,SSW,199,0.0,0.0,87,0.00,,---,0.00,VWS V14.01,2013-05-29 11:07:00,
2013-05-29 05:08:00,61.5,57.6,25.22,SSW,199,0.0,0.0,87,0.00,,---,0.00,VWS V14.01,2013-05-29 11:08:00,
2013-05-29 05:10:00,61.5,57.6,25.22,SSW,199,0.0,0.0,87,0.00,,---,0.00,VWS V14.01,2013-05-29 11:10:00,
2013-05-29 05:15:00,61.3,57.1,25.22,SSW,199,0.0,2.7,86,0.00,,---,0.00,VWS V14.01,2013-05-29 11:15:00,
2013-05-29 05:16:00,61.3,57.1,25.22,SSW,199,0.0,0.0,86,0.00,,---,0.00,VWS V14.01,2013-05-29 11:16:00,
2013-05-29 05:20:00,61.5,57.3,25.22,SSW,199,0.0,0.0,86,0.00,,---,0.00,VWS V14.01,2013-05-29 11:20:00,
2013-05-29 05:21:00,61.5,57.3,25.22,SSW,199,0.0,0.0,86,0.00,,---,0.00,VWS V14.01,2013-05-29 11:21:00,
2013-05-29 05:22:00,61.5,57.3,25.22,SSW,199,0.0,0.0,86,0.00,,---,0.00,VWS V14.01,2013-05-29 11:22:00,
2013-05-29 05:23:00,61.3,57.1,25.22,SSW,199,0.0,0.0,86,0.00,,---,0.00,VWS V14.01,2013-05-29 11:23:00,
2013-05-29 05:26:00,61.3,57.1,25.22,SSW,199,0.0,2.2,86,0.00,,---,0.00,VWS V14.01,2013-05-29 11:26:00,
2013-05-29 05:28:00,61.3,57.1,25.22,SSW,199,0.0,0.0,86,0.00,,---,0.00,VWS V14.01,2013-05-29 11:28:00,
2013-05-29 05:29:00,61.3,57.1,25.22,SSW,199,0.0,0.0,86,0.00,,---,0.00,VWS V14.01,2013-05-29 11:29:00,
2013-05-29 05:31:00,61.3,57.4,25.22,SSW,199,0.0,0.0,87,0.00,,---,0.00,VWS V14.01,2013-05-29 11:31:00,
2013-05-29 05:33:00,61.3,57.4,25.22,SSW,199,0.0,0.0,87,0.00,,---,0.00,VWS V14.01,2013-05-29 11:33:00,
2013-05-29 05:34:00,61.3,57.4,25.22,SSW,199,0.0,0.0,87,0.00,,---,0.00,VWS V14.01,2013-05-29 11:34:00,
2013-05-29 05:35:00,61.3,57.4,25.22,SSW,199,0.0,0.0,87,0.00,,---,0.00,VWS V14.01,2013-05-29 11:35:00,
2013-05-29 05:38:00,61.5,57.6,25.22,SSW,199,0.0,2.2,87,0.00,,---,0.00,VWS V14.01,2013-05-29 11:38:00,
2013-05-29 05:40:00,61.5,57.6,25.22,SSW,199,0.0,0.0,87,0.00,,---,0.00,VWS V14.01,2013-05-29 11:40:00,
2013-05-29 05:43:00,61.7,57.8,25.22,SW,229,0.0,2.2,87,0.00,,---,0.00,VWS V14.01,2013-05-29 11:43:00,
2013-05-29 05:46:00,61.9,58.0,25.22,SW,229,2.2,2.2,87,0.00,,---,0.00,VWS V14.01,2013-05-29 11:46:00,
2013-05-29 05:49:00,62.1,58.2,25.22,SW,222,0.0,0.0,87,0.00,,---,0.00,VWS V14.01,2013-05-29 11:49:00,
2013-05-29 05:50:00,62.2,58.3,25.22,SW,221,0.0,0.0,87,0.00,,---,0.00,VWS V14.01,2013-05-29 11:50:00,
2013-05-29 05:53:00,62.2,58.3,25.25,SW,221,0.0,0.0,87,0.00,,---,0.00,VWS V14.01,2013-05-29 11:53:00,
2013-05-29 05:54:00,62.2,58.3,25.25,SW,219,0.0,0.0,87,0.00,,---,0.00,VWS V14.01,2013-05-29 11:54:00,
2013-05-29 05:56:00,62.4,58.5,25.25,SW,219,0.0,0.0,87,0.00,,---,0.00,VWS V14.01,2013-05-29 11:56:00,
2013-05-29 05:59:00,62.4,58.5,25.25,SW,219,0.0,0.0,87,0.00,,---,0.00,VWS V14.01,2013-05-29 11:59:00,
2013-05-29 06:00:00,62.6,58.7,25.25,SW,219,0.0,0.0,87,0.00,,---,0.00,VWS V14.01,2013-05-29 12:00:00,
2013-05-29 06:03:00,62.6,58.7,25.25,SW,219,0.0,0.0,87,0.00,,---,0.00,VWS V14.01,2013-05-29 12:03:00,
2013-05-29 06:06:00,62.8,59.2,25.25,SW,219,0.0,0.0,88,0.00,,---,0.00,VWS V14.01,2013-05-29 12:06:00,
2013-05-29 06:08:00,63.0,59.4,25.25,SW,219,0.0,0.0,88,0.00,,---,0.00,VWS V14.01,2013-05-29 12:08:00,
2013-05-29 06:09:00,63.0,59.4,25.25,SW,219,0.0,0.0,88,0.00,,---,0.00,VWS V14.01,2013-05-29 12:09:00,
2013-05-29 06:10:00,63.0,59.4,25.25,SW,219,0.0,0.0,88,0.00,,---,0.00,VWS V14.01,2013-05-29 12:10:00,
2013-05-29 06:12:00,63.1,59.5,25.25,SW,219,0.0,0.0,88,0.00,,---,0.00,VWS V14.01,2013-05-29 12:12:00,
2013-05-29 06:13:00,63.1,59.5,25.25,SW,219,0.0,0.0,88,0.00,,---,0.00,VWS V14.01,2013-05-29 12:13:00,
2013-05-29 06:15:00,63.3,60.0,25.25,SW,219,0.0,0.0,89,0.00,,---,0.00,VWS V14.01,2013-05-29 12:15:00,
2013-05-29 06:16:00,63.5,60.2,25.25,SW,219,0.0,0.0,89,0.00,,---,0.00,VWS V14.01,2013-05-29 12:16:00,
2013-05-29 06:17:00,63.5,60.2,25.25,SW,219,0.0,0.0,89,0.00,,---,0.00,VWS V14.01,2013-05-29 12:17:00,
2013-05-29 06:20:00,63.7,60.4,25.25,SW,219,0.0,0.0,89,0.00,,---,0.00,VWS V14.01,2013-05-29 12:20:00,
2013-05-29 06:22:00,64.0,61.0,25.25,SW,219,0.0,0.0,90,0.00,,---,0.00,VWS V14.01,2013-05-29 12:22:00,
2013-05-29 06:23:00,64.2,61.2,25.25,SW,219,0.0,0.0,90,0.00,,---,0.00,VWS V14.01,2013-05-29 12:23:00,
2013-05-29 06:24:00,64.2,61.2,25.25,SW,219,0.0,0.0,90,0.00,,---,0.00,VWS V14.01,2013-05-29 12:24:00,
2013-05-29 06:29:00,64.8,61.8,25.25,SW,219,0.0,0.0,90,0.00,,---,0.00,VWS V14.01,2013-05-29 12:29:00,
2013-05-29 06:30:00,64.8,61.8,25.25,SW,219,0.0,0.0,90,0.00,,---,0.00,VWS V14.01,2013-05-29 12:30:00,
2013-05-29 06:31:00,64.8,61.8,25.25,SW,219,0.0,0.0,90,0.00,,---,0.00,VWS V14.01,2013-05-29 12:31:00,
2013-05-29 06:33:00,65.1,62.1,25.25,SW,219,0.0,0.0,90,0.00,,---,0.00,VWS V14.01,2013-05-29 12:33:00,
2013-05-29 06:36:00,65.7,62.7,25.25,SW,219,0.0,0.0,90,0.00,,---,0.00,VWS V14.01,2013-05-29 12:36:00,
2013-05-29 06:37:00,65.7,62.7,25.25,SW,219,0.0,0.0,90,0.00,,---,0.00,VWS V14.01,2013-05-29 12:37:00,
2013-05-29 06:39:00,65.8,62.5,25.25,SW,219,0.0,0.0,89,0.00,,---,0.00,VWS V14.01,2013-05-29 12:39:00,
2013-05-29 06:40:00,66.0,62.7,25.25,SW,219,0.0,0.0,89,0.00,,---,0.00,VWS V14.01,2013-05-29 12:40:00,
2013-05-29 06:42:00,66.4,63.0,25.25,SW,219,0.0,0.0,89,0.00,,---,0.00,VWS V14.01,2013-05-29 12:42:00,
2013-05-29 06:44:00,66.6,62.9,25.25,SW,219,0.0,0.0,88,0.00,,---,0.00,VWS V14.01,2013-05-29 12:44:00,
2013-05-29 06:46:00,66.6,62.6,25.25,SW,219,0.0,0.0,87,0.00,,---,0.00,VWS V14.01,2013-05-29 12:46:00,
2013-05-29 06:47:00,66.7,62.4,25.25,SW,219,0.0,0.0,86,0.00,,---,0.00,VWS V14.01,2013-05-29 12:47:00,
2013-05-29 06:48:00,66.7,62.1,25.25,SW,219,0.0,0.0,85,0.00,,---,0.00,VWS V14.01,2013-05-29 12:48:00,
2013-05-29 06:49:00,66.7,61.1,25.25,SW,219,0.0,0.0,82,0.00,,---,0.00,VWS V14.01,2013-05-29 12:49:00,
2013-05-29 06:51:00,66.9,60.9,25.25,SW,219,0.0,0.0,81,0.00,,---,0.00,VWS V14.01,2013-05-29 12:51:00,
2013-05-29 06:53:00,67.1,61.1,25.25,SW,219,0.0,0.0,81,0.00,,---,0.00,VWS V14.01,2013-05-29 12:53:00,
2013-05-29 06:54:00,67.1,60.7,25.25,SW,219,0.0,0.0,80,0.00,,---,0.00,VWS V14.01,2013-05-29 12:54:00,
2013-05-29 06:55:00,67.1,60.4,25.25,SW,219,0.0,0.0,79,0.00,,---,0.00,VWS V14.01,2013-05-29 12:55:00,
2013-05-29 06:57:00,67.1,59.3,25.25,SW,219,0.0,0.0,76,0.00,,---,0.00,VWS V14.01,2013-05-29 12:57:00,
2013-05-29 06:58:00,66.9,57.6,25.25,SW,219,2.2,2.2,72,0.00,,---,0.00,VWS V14.01,2013-05-29 12:58:00,
2013-05-29 06:59:00,66.9,57.6,25.25,SW,219,0.0,2.2,72,0.00,,---,0.00,VWS V14.01,2013-05-29 12:59:00,
2013-05-29 07:01:00,67.1,58.2,25.25,SW,219,0.0,0.0,73,0.00,,---,0.00,VWS V14.01,2013-05-29 13:01:00,
2013-05-29 07:02:00,67.1,58.5,25.25,SW,219,0.0,0.0,74,0.00,,---,0.00,VWS V14.01,2013-05-29 13:02:00,
2013-05-29 07:03:00,67.1,58.9,25.25,SW,219,0.0,0.0,75,0.00,,---,0.00,VWS V14.01,2013-05-29 13:03:00,
2013-05-29 07:05:00,67.1,58.9,25.25,SW,219,0.0,0.0,75,0.00,,---,0.00,VWS V14.01,2013-05-29 13:05:00,
2013-05-29 07:08:00,67.1,57.4,25.25,SW,219,0.0,0.0,71,0.00,,---,0.00,VWS V14.01,2013-05-29 13:08:00,
2013-05-29 07:09:00,67.3,57.6,25.25,SW,219,0.0,0.0,71,0.00,,---,0.00,VWS V14.01,2013-05-29 13:09:00,
2013-05-29 07:10:00,67.3,57.6,25.25,SW,219,0.0,0.0,71,0.00,,---,0.00,VWS V14.01,2013-05-29 13:10:00,
2013-05-29 07:13:00,67.5,58.5,25.25,SW,219,0.0,0.0,73,0.00,,---,0.00,VWS V14.01,2013-05-29 13:13:00,
2013-05-29 07:14:00,67.5,58.5,25.25,SW,219,0.0,0.0,73,0.00,,---,0.00,VWS V14.01,2013-05-29 13:14:00,
2013-05-29 07:17:00,67.5,58.1,25.25,SW,219,0.0,0.0,72,0.00,,---,0.00,VWS V14.01,2013-05-29 13:17:00,
2013-05-29 07:18:00,67.5,58.1,25.25,SW,219,0.0,0.0,72,0.00,,---,0.00,VWS V14.01,2013-05-29 13:18:00,
2013-05-29 07:19:00,67.5,58.1,25.25,SW,219,0.0,0.0,72,0.00,,---,0.00,VWS V14.01,2013-05-29 13:19:00,
2013-05-29 07:20:00,67.6,58.3,25.25,SW,219,0.0,0.0,72,0.00,,---,0.00,VWS V14.01,2013-05-29 13:20:00,
2013-05-29 07:23:00,67.8,58.1,25.25,SW,219,0.0,0.0,71,0.00,,---,0.00,VWS V14.01,2013-05-29 13:23:00,
2013-05-29 07:24:00,67.8,58.1,25.25,SW,219,0.0,0.0,71,0.00,,---,0.00,VWS V14.01,2013-05-29 13:24:00,
2013-05-29 07:25:00,68.0,57.9,25.25,SW,219,0.0,0.0,70,0.00,,---,0.00,VWS V14.01,2013-05-29 13:25:00,
2013-05-29 07:26:00,68.0,58.3,25.25,SW,218,0.0,0.0,71,0.00,,---,0.00,VWS V14.01,2013-05-29 13:26:00,
2013-05-29 07:31:00,68.4,57.4,25.25,ESE,109,0.0,0.0,68,0.00,,---,0.00,VWS V14.01,2013-05-29 13:31:00,
2013-05-29 07:32:00,68.4,57.4,25.25,ESE,109,0.0,0.0,68,0.00,,---,0.00,VWS V14.01,2013-05-29 13:32:00,
2013-05-29 07:33:00,68.5,57.2,25.25,ESE,109,0.0,0.0,67,0.00,,---,0.00,VWS V14.01,2013-05-29 13:33:00,
2013-05-29 07:36:00,68.7,56.9,25.25,ESE,109,0.0,0.0,66,0.00,,---,0.00,VWS V14.01,2013-05-29 13:36:00,
2013-05-29 07:37:00,68.7,56.9,25.25,ESE,109,0.0,0.0,66,0.00,,---,0.00,VWS V14.01,2013-05-29 13:37:00,
2013-05-29 07:40:00,68.9,56.2,25.25,ENE,65,0.0,0.0,64,0.00,,---,0.00,VWS V14.01,2013-05-29 13:40:00,
2013-05-29 07:42:00,69.1,57.3,25.25,ENE,70,0.0,0.0,66,0.00,,---,0.00,VWS V14.01,2013-05-29 13:42:00,
2013-05-29 07:43:00,69.1,57.3,25.25,ENE,73,0.0,0.0,66,0.00,,---,0.00,VWS V14.01,2013-05-29 13:43:00,
2013-05-29 07:48:00,69.4,58.0,25.25,ENE,63,0.0,0.0,67,0.00,,---,0.00,VWS V14.01,2013-05-29 13:48:00,
2013-05-29 07:49:00,69.4,56.8,25.25,NE,41,0.0,0.0,64,0.00,,---,0.00,VWS V14.01,2013-05-29 13:49:00,
2013-05-29 07:50:00,69.4,56.3,25.25,NNE,33,0.0,0.0,63,0.00,,---,0.00,VWS V14.01,2013-05-29 13:50:00,
2013-05-29 07:54:00,69.6,57.8,25.25,NE,34,3.1,3.1,66,0.00,,---,0.00,VWS V14.01,2013-05-29 13:54:00,
2013-05-29 07:55:00,69.6,57.8,25.25,NE,34,3.1,3.1,66,0.00,,---,0.00,VWS V14.01,2013-05-29 13:55:00,
2013-05-29 07:57:00,69.4,57.2,25.25,NE,39,3.1,3.1,65,0.00,,---,0.00,VWS V14.01,2013-05-29 13:57:00,
2013-05-29 07:58:00,69.4,57.6,25.25,NE,39,3.1,3.1,66,0.00,,---,0.00,VWS V14.01,2013-05-29 13:58:00,
2013-05-29 08:03:00,69.6,57.3,25.25,NNE,31,0.0,0.0,65,0.00,,---,0.00,VWS V14.01,2013-05-29 14:03:00,
2013-05-29 08:04:00,69.6,57.3,25.25,NE,46,2.2,2.2,65,0.00,,---,0.00,VWS V14.01,2013-05-29 14:04:00,
2013-05-29 08:07:00,69.8,57.1,25.25,NNE,20,2.2,2.7,64,0.00,,---,0.00,VWS V14.01,2013-05-29 14:07:00,
2013-05-29 08:08:00,70.0,57.7,25.25,ENE,69,3.1,3.1,65,0.00,,---,0.00,VWS V14.01,2013-05-29 14:08:00,
2013-05-29 08:10:00,70.0,57.7,25.25,SE,129,0.0,0.0,65,0.00,,---,0.00,VWS V14.01,2013-05-29 14:10:00,
2013-05-29 08:12:00,70.0,57.7,25.25,SE,129,0.0,0.0,65,0.00,,---,0.00,VWS V14.01,2013-05-29 14:12:00,
2013-05-29 08:13:00,70.0,57.7,25.25,SE,129,0.0,0.0,65,0.00,,---,0.00,VWS V14.01,2013-05-29 14:13:00,
2013-05-29 08:14:00,70.0,57.7,25.25,SE,129,0.0,0.0,65,0.00,,---,0.00,VWS V14.01,2013-05-29 14:14:00,
2013-05-29 08:16:00,70.2,57.9,25.25,SE,129,0.0,0.0,65,0.00,,---,0.00,VWS V14.01,2013-05-29 14:16:00,
2013-05-29 08:18:00,70.3,57.6,25.25,ESE,116,0.0,0.0,64,0.00,,---,0.00,VWS V14.01,2013-05-29 14:18:00,
2013-05-29 08:21:00,70.3,57.6,25.25,ESE,116,0.0,0.0,64,0.00,,---,0.00,VWS V14.01,2013-05-29 14:21:00,
2013-05-29 08:22:00,70.3,57.6,25.25,NNW,330,0.0,0.0,64,0.00,,---,0.00,VWS V14.01,2013-05-29 14:22:00,
2013-05-29 08:23:00,70.3,57.6,25.25,NNW,341,2.2,2.2,64,0.00,,---,0.00,VWS V14.01,2013-05-29 14:23:00,
2013-05-29 08:25:00,70.3,57.6,25.25,WNW,286,0.0,2.2,64,0.00,,---,0.00,VWS V14.01,2013-05-29 14:25:00,
2013-05-29 08:26:00,72.1,58.0,25.25,West,280,0.0,0.0,61,0.00,,---,0.00,VWS V14.01,2013-05-29 14:26:00,
2013-05-29 08:28:00,72.1,58.0,25.25,NW,319,0.0,0.0,61,0.00,,---,0.00,VWS V14.01,2013-05-29 14:28:00,
2013-05-29 08:32:00,73.0,56.4,25.25,North,10,0.0,2.2,56,0.00,,---,0.00,VWS V14.01,2013-05-29 14:32:00,
2013-05-29 08:33:00,73.0,56.4,25.25,NNW,346,0.0,2.2,56,0.00,,---,0.00,VWS V14.01,2013-05-29 14:33:00,
2013-05-29 08:34:00,73.4,56.8,25.25,NW,314,3.1,3.1,56,0.00,,---,0.00,VWS V14.01,2013-05-29 14:34:00,
2013-05-29 08:37:00,74.3,56.1,25.25,ESE,107,2.2,2.2,53,0.00,,---,0.00,VWS V14.01,2013-05-29 14:37:00,
2013-05-29 08:39:00,74.3,56.1,25.25,NNE,21,0.0,3.1,53,0.00,,---,0.00,VWS V14.01,2013-05-29 14:39:00,
2013-05-29 08:40:00,75.0,55.1,25.25,North,353,0.0,0.0,50,0.00,,---,0.00,VWS V14.01,2013-05-29 14:40:00,
2013-05-29 08:41:00,75.0,55.1,25.25,North,353,0.0,0.0,50,0.00,,---,0.00,VWS V14.01,2013-05-29 14:41:00,
2013-05-29 08:44:00,75.0,55.1,25.25,NNE,19,2.7,2.7,50,0.00,,---,0.00,VWS V14.01,2013-05-29 14:44:00,
2013-05-29 08:46:00,75.0,55.1,25.25,NNW,346,4.0,4.0,50,0.00,,---,0.00,VWS V14.01,2013-05-29 14:46:00,
2013-05-29 08:47:00,75.0,55.1,25.25,NW,325,2.7,4.0,50,0.00,,---,0.00,VWS V14.01,2013-05-29 14:47:00,
2013-05-29 08:48:00,76.1,54.4,25.25,North,0,0.0,2.7,47,0.00,,---,0.00,VWS V14.01,2013-05-29 14:48:00,
2013-05-29 08:50:00,76.1,54.4,25.25,NW,322,3.1,3.1,47,0.00,,---,0.00,VWS V14.01,2013-05-29 14:50:00,
2013-05-29 08:52:00,76.1,52.6,25.25,NW,324,3.1,5.4,44,0.00,,---,0.00,VWS V14.01,2013-05-29 14:52:00,
2013-05-29 08:54:00,76.1,52.6,25.25,NW,324,3.1,3.1,44,0.00,,---,0.00,VWS V14.01,2013-05-29 14:54:00,
2013-05-29 08:56:00,76.1,52.6,25.25,NW,318,4.0,4.0,44,0.00,,---,0.00,VWS V14.01,2013-05-29 14:56:00,
2013-05-29 08:58:00,75.6,51.5,25.25,NW,318,4.0,4.0,43,0.00,,---,0.00,VWS V14.01,2013-05-29 14:58:00,
2013-05-29 09:00:00,75.4,52.6,25.25,NNE,17,3.1,3.1,45,0.00,,---,0.00,VWS V14.01,2013-05-29 15:00:00,
2013-05-29 09:01:00,75.4,53.8,25.25,NNE,21,2.7,3.1,47,0.00,,---,0.00,VWS V14.01,2013-05-29 15:01:00,
2013-05-29 09:04:00,75.4,51.3,25.25,North,353,0.0,3.1,43,0.00,,---,0.00,VWS V14.01,2013-05-29 15:04:00,
2013-05-29 09:09:00,75.4,52.6,25.25,ENE,77,2.7,2.7,45,0.00,,---,0.00,VWS V14.01,2013-05-29 15:09:00,
2013-05-29 09:10:00,75.4,52.0,25.25,NW,323,2.7,2.7,44,0.00,,---,0.00,VWS V14.01,2013-05-29 15:10:00,
2013-05-29 09:13:00,75.2,51.2,25.25,NNE,17,4.0,4.0,43,0.00,,---,0.00,VWS V14.01,2013-05-29 15:13:00,
2013-05-29 09:17:00,74.1,50.8,25.25,North,0,5.4,5.4,44,0.00,,---,0.00,VWS V14.01,2013-05-29 15:17:00,
2013-05-29 09:18:00,74.1,50.8,25.25,North,0,5.4,5.4,44,0.00,,---,0.00,VWS V14.01,2013-05-29 15:18:00,
2013-05-29 09:19:00,74.1,51.4,25.25,North,0,5.4,5.4,45,0.00,,---,0.00,VWS V14.01,2013-05-29 15:19:00,
2013-05-29 09:20:00,74.1,51.4,25.25,North,0,5.4,5.4,45,0.00,,---,0.00,VWS V14.01,2013-05-29 15:20:00,
2013-05-29 09:22:00,74.1,51.4,25.25,East,79,4.0,5.4,45,0.00,,---,0.00,VWS V14.01,2013-05-29 15:22:00,
2013-05-29 09:25:00,74.1,51.4,25.25,NNE,30,5.4,5.4,45,0.00,,---,0.00,VWS V14.01,2013-05-29 15:25:00,
2013-05-29 09:28:00,74.3,52.2,25.25,ENE,57,2.2,4.9,46,0.00,,---,0.00,VWS V14.01,2013-05-29 15:28:00,
2013-05-29 09:29:00,74.3,52.2,25.25,ENE,69,2.7,2.7,46,0.00,,---,0.00,VWS V14.01,2013-05-29 15:29:00,
2013-05-29 09:30:00,74.3,52.2,25.25,ENE,61,3.6,3.6,46,0.00,,---,0.00,VWS V14.01,2013-05-29 15:30:00,
2013-05-29 09:34:00,74.1,50.8,25.25,NE,37,3.1,3.6,44,0.00,,---,0.00,VWS V14.01,2013-05-29 15:34:00,
2013-05-29 09:35:00,74.1,52.6,25.25,ENE,61,2.7,3.1,47,0.00,,---,0.00,VWS V14.01,2013-05-29 15:35:00,
2013-05-29 09:37:00,74.1,52.6,25.25,NE,44,0.0,0.0,47,0.00,,---,0.00,VWS V14.01,2013-05-29 15:37:00,
2013-05-29 09:38:00,74.3,51.6,25.25,East,85,0.0,2.7,45,0.00,,---,0.00,VWS V14.01,2013-05-29 15:38:00,
2013-05-29 09:40:00,74.5,51.8,25.25,East,85,0.0,0.0,45,0.00,,---,0.00,VWS V14.01,2013-05-29 15:40:00,
2013-05-29 09:41:00,75.0,52.9,25.25,ENE,61,2.7,2.7,46,0.00,,---,0.00,VWS V14.01,2013-05-29 15:41:00,
2013-05-29 09:43:00,75.0,52.9,25.25,NE,41,3.1,3.6,46,0.00,,---,0.00,VWS V14.01,2013-05-29 15:43:00,
2013-05-29 09:44:00,75.0,52.9,25.25,NE,41,3.1,3.1,46,0.00,,---,0.00,VWS V14.01,2013-05-29 15:44:00,
2013-05-29 09:46:00,75.9,50.5,25.25,NE,43,2.7,3.6,41,0.00,,---,0.00,VWS V14.01,2013-05-29 15:46:00,
2013-05-29 09:47:00,75.9,50.5,25.25,NE,43,2.7,2.7,41,0.00,,---,0.00,VWS V14.01,2013-05-29 15:47:00,
2013-05-29 09:49:00,76.3,52.2,25.25,East,96,4.0,4.0,43,0.00,,---,0.00,VWS V14.01,2013-05-29 15:49:00,
2013-05-29 09:52:00,76.5,53.0,25.28,North,3,3.1,4.0,44,0.00,,---,0.00,VWS V14.01,2013-05-29 15:52:00,
2013-05-29 09:55:00,76.6,54.3,25.28,NNE,31,4.0,4.0,46,0.00,,---,0.00,VWS V14.01,2013-05-29 15:55:00,
2013-05-29 09:56:00,77.4,55.0,25.28,ENE,57,4.0,4.0,46,0.00,,---,0.00,VWS V14.01,2013-05-29 15:56:00,
2013-05-29 09:58:00,77.4,55.0,25.28,NE,37,2.2,4.0,46,0.00,,---,0.00,VWS V14.01,2013-05-29 15:58:00,
2013-05-29 10:01:00,78.8,54.4,25.28,North,0,2.7,3.6,43,0.00,,---,0.00,VWS V14.01,2013-05-29 16:01:00,
2013-05-29 10:03:00,78.8,54.4,25.25,NE,55,3.6,3.6,43,0.00,,---,0.00,VWS V14.01,2013-05-29 16:03:00,
2013-05-29 10:04:00,79.0,53.3,25.25,East,97,4.9,6.3,41,0.00,,---,0.00,VWS V14.01,2013-05-29 16:04:00,
2013-05-29 10:09:00,78.6,53.0,25.25,WNW,282,3.1,4.5,41,0.00,,---,0.00,VWS V14.01,2013-05-29 16:09:00,
2013-05-29 10:11:00,78.6,53.0,25.25,WNW,302,3.6,5.8,41,0.00,,---,0.00,VWS V14.01,2013-05-29 16:11:00,
2013-05-29 10:13:00,78.6,53.0,25.25,NNW,338,3.6,3.6,41,0.00,,---,0.00,VWS V14.01,2013-05-29 16:13:00,
2013-05-29 10:16:00,78.4,52.8,25.25,North,4,4.0,4.0,41,0.00,,---,0.00,VWS V14.01,2013-05-29 16:16:00,
2013-05-29 10:17:00,78.3,52.7,25.25,SE,128,3.6,4.0,41,0.00,,---,0.00,VWS V14.01,2013-05-29 16:17:00,
2013-05-29 10:18:00,78.3,51.3,25.25,East,83,4.9,4.9,39,0.00,,---,0.00,VWS V14.01,2013-05-29 16:18:00,
2013-05-29 10:20:00,78.1,51.8,25.25,ENE,57,4.0,4.0,40,0.00,,---,0.00,VWS V14.01,2013-05-29 16:20:00,
2013-05-29 10:22:00,77.5,50.7,25.25,West,272,2.7,3.1,39,0.00,,---,0.00,VWS V14.01,2013-05-29 16:22:00,
2013-05-29 10:25:00,77.4,50.5,25.25,ESE,120,3.6,3.6,39,0.00,,---,0.00,VWS V14.01,2013-05-29 16:25:00,
2013-05-29 10:26:00,76.6,50.5,25.25,SSE,148,3.6,3.6,40,0.00,,---,0.00,VWS V14.01,2013-05-29 16:26:00,
2013-05-29 10:27:00,76.3,51.5,25.25,SSE,148,2.2,3.6,42,0.00,,---,0.00,VWS V14.01,2013-05-29 16:27:00,
2013-05-29 10:28:00,76.3,52.2,25.25,ENE,58,2.2,2.2,43,0.00,,---,0.00,VWS V14.01,2013-05-29 16:28:00,
2013-05-29 10:29:00,76.3,52.2,25.25,ENE,75,2.7,4.9,43,0.00,,---,0.00,VWS V14.01,2013-05-29 16:29:00,
2013-05-29 10:32:00,76.5,52.3,25.25,NE,43,0.0,2.7,43,0.00,,---,0.00,VWS V14.01,2013-05-29 16:32:00,
2013-05-29 10:34:00,77.0,51.5,25.25,NE,37,3.1,4.0,41,0.00,,---,0.00,VWS V14.01,2013-05-29 16:34:00,
2013-05-29 10:37:00,77.0,51.5,25.25,SE,137,4.0,5.4,41,0.00,,---,0.00,VWS V14.01,2013-05-29 16:37:00,
2013-05-29 10:38:00,77.0,51.5,25.25,ENE,68,3.1,4.0,41,0.00,,---,0.00,VWS V14.01,2013-05-29 16:38:00,
2013-05-29 10:39:00,77.9,53.0,25.25,ENE,68,3.1,3.1,42,0.00,,---,0.00,VWS V14.01,2013-05-29 16:39:00,
2013-05-29 10:40:00,77.9,52.3,25.25,ENE,62,4.0,4.0,41,0.00,,---,0.00,VWS V14.01,2013-05-29 16:40:00,
2013-05-29 10:43:00,77.9,51.0,25.25,NE,48,4.9,4.9,39,0.00,,---,0.00,VWS V14.01,2013-05-29 16:43:00,
2013-05-29 10:45:00,77.4,51.8,25.25,ENE,70,0.0,5.4,41,0.00,,---,0.00,VWS V14.01,2013-05-29 16:45:00,
2013-05-29 10:46:00,77.4,51.8,25.25,East,88,2.7,2.7,41,0.00,,---,0.00,VWS V14.01,2013-05-29 16:46:00,
2013-05-29 10:48:00,77.2,52.3,25.25,North,2,5.4,5.4,42,0.00,,---,0.00,VWS V14.01,2013-05-29 16:48:00,
2013-05-29 10:49:00,77.0,54.7,25.25,NE,35,4.0,5.4,46,0.00,,---,0.00,VWS V14.01,2013-05-29 16:49:00,
2013-05-29 10:51:00,77.0,54.7,25.25,WNW,285,6.3,6.3,46,0.00,,---,0.00,VWS V14.01,2013-05-29 16:51:00,
2013-05-29 10:52:00,77.2,54.2,25.25,WNW,292,4.9,6.3,45,0.00,,---,0.00,VWS V14.01,2013-05-29 16:52:00,
2013-05-29 10:54:00,77.4,54.4,25.25,NNW,341,0.0,4.9,45,0.00,,---,0.00,VWS V14.01,2013-05-29 16:54:00,
2013-05-29 10:57:00,77.5,54.5,25.25,NNW,341,0.0,0.0,45,0.00,,---,0.00,VWS V14.01,2013-05-29 16:57:00,
2013-05-29 10:58:00,77.9,56.1,25.25,North,350,8.1,8.1,47,0.00,,---,0.00,VWS V14.01,2013-05-29 16:58:00,
2013-05-29 11:00:00,77.9,54.3,25.25,North,9,3.1,4.9,44,0.00,,---,0.00,VWS V14.01,2013-05-29 17:00:00,
2013-05-29 11:04:00,77.5,54.5,25.25,NNW,336,5.8,5.8,45,0.00,,---,0.00,VWS V14.01,2013-05-29 17:04:00,
2013-05-29 11:06:00,77.7,55.3,25.25,WNW,302,4.9,5.4,46,0.00,,---,0.00,VWS V14.01,2013-05-29 17:06:00,
2013-05-29 11:07:00,77.7,55.3,25.25,North,353,3.6,4.9,46,0.00,,---,0.00,VWS V14.01,2013-05-29 17:07:00,
2013-05-29 11:09:00,77.9,55.5,25.25,WNW,286,4.9,5.4,46,0.00,,---,0.00,VWS V14.01,2013-05-29 17:09:00,
2013-05-29 11:10:00,78.1,55.6,25.25,WNW,286,4.9,4.9,46,0.00,,---,0.00,VWS V14.01,2013-05-29 17:10:00,
2013-05-29 11:11:00,78.4,56.0,25.25,NNW,341,0.0,4.9,46,0.00,,---,0.00,VWS V14.01,2013-05-29 17:11:00,
2013-05-29 11:13:00,79.0,55.8,25.25,NNW,338,4.0,4.0,45,0.00,,---,0.00,VWS V14.01,2013-05-29 17:13:00,
2013-05-29 11:15:00,79.2,56.0,25.25,NNW,331,6.3,7.6,45,0.00,,---,0.00,VWS V14.01,2013-05-29 17:15:00,
2013-05-29 11:16:00,79.0,55.8,25.25,WNW,288,3.1,6.3,45,0.00,,---,0.00,VWS V14.01,2013-05-29 17:16:00,
2013-05-29 11:17:00,79.0,55.8,25.22,NW,324,5.8,6.7,45,0.00,,---,0.00,VWS V14.01,2013-05-29 17:17:00,
2013-05-29 11:20:00,78.4,55.4,25.22,West,275,4.9,6.3,45,0.00,,---,0.00,VWS V14.01,2013-05-29 17:20:00,
2013-05-29 11:21:00,78.4,55.4,25.22,West,275,4.9,4.9,45,0.00,,---,0.00,VWS V14.01,2013-05-29 17:21:00,
2013-05-29 11:24:00,78.4,55.4,25.22,WNW,302,4.5,4.5,45,0.00,,---,0.00,VWS V14.01,2013-05-29 17:24:00,
2013-05-29 11:26:00,78.4,55.4,25.22,North,0,6.3,6.3,45,0.00,,---,0.00,VWS V14.01,2013-05-29 17:26:00,
2013-05-29 11:27:00,77.2,54.8,25.22,West,279,3.1,6.3,46,0.00,,---,0.00,VWS V14.01,2013-05-29 17:27:00,
2013-05-29 11:28:00,77.2,54.8,25.22,West,275,2.7,5.8,46,0.00,,---,0.00,VWS V14.01,2013-05-29 17:28:00,
2013-05-29 11:31:00,76.6,54.9,25.22,West,276,7.2,7.2,47,0.00,,---,0.00,VWS V14.01,2013-05-29 17:31:00,
2013-05-29 11:35:00,75.4,52.0,25.22,NW,306,2.2,5.4,44,0.00,,---,0.00,VWS V14.01,2013-05-29 17:35:00,
2013-05-29 11:36:00,75.2,52.4,25.22,NW,306,2.2,2.2,45,0.00,,---,0.00,VWS V14.01,2013-05-29 17:36:00,
2013-05-29 11:37:00,75.2,52.4,25.22,West,277,3.1,3.6,45,0.00,,---,0.00,VWS V14.01,2013-05-29 17:37:00,
2013-05-29 11:39:00,74.5,52.4,25.22,WNW,287,3.1,4.0,46,0.00,,---,0.00,VWS V14.01,2013-05-29 17:39:00,
2013-05-29 11:43:00,73.9,53.0,25.22,West,262,0.0,2.7,48,0.00,,---,0.00,VWS V14.01,2013-05-29 17:43:00,
2013-05-29 11:45:00,73.8,52.9,25.22,West,279,0.0,0.0,48,0.00,,---,0.00,VWS V14.01,2013-05-29 17:45:00,
2013-05-29 11:46:00,73.8,52.9,25.22,West,267,3.1,5.4,48,0.00,,---,0.00,VWS V14.01,2013-05-29 17:46:00,
2013-05-29 11:47:00,74.1,54.3,25.22,SSW,194,4.0,4.0,50,0.00,,---,0.00,VWS V14.01,2013-05-29 17:47:00,
2013-05-29 11:49:00,74.1,54.3,25.22,SW,226,4.0,4.0,50,0.00,,---,0.00,VWS V14.01,2013-05-29 17:49:00,
2013-05-29 11:50:00,74.8,55.0,25.22,West,260,5.8,5.8,50,0.00,,---,0.00,VWS V14.01,2013-05-29 17:50:00,
2013-05-29 11:53:00,75.6,55.1,25.22,SW,233,5.4,5.4,49,0.00,,---,0.00,VWS V14.01,2013-05-29 17:53:00,
2013-05-29 11:55:00,75.7,53.5,25.22,West,265,3.1,4.0,46,0.00,,---,0.00,VWS V14.01,2013-05-29 17:55:00,
2013-05-29 12:00:00,76.6,52.5,25.22,WNW,286,2.7,5.4,43,0.00,,---,0.00,VWS V14.01,2013-05-29 18:00:00,
2013-05-29 12:01:00,76.6,52.5,25.22,West,279,3.1,3.1,43,0.00,,---,0.00,VWS V14.01,2013-05-29 18:01:00,
2013-05-29 12:04:00,77.5,53.9,25.22,WNW,291,4.0,7.2,44,0.00,,---,0.00,VWS V14.01,2013-05-29 18:04:00,
2013-05-29 12:06:00,77.7,54.1,25.19,WNW,288,8.1,8.1,44,0.00,,---,0.00,VWS V14.01,2013-05-29 18:06:00,
2013-05-29 12:09:00,77.9,53.6,25.19,WNW,289,8.3,8.3,43,0.00,,---,0.00,VWS V14.01,2013-05-29 18:09:00,
2013-05-29 12:11:00,78.1,53.2,25.19,West,266,4.9,4.9,42,0.00,,---,0.00,VWS V14.01,2013-05-29 18:11:00,
2013-05-29 12:12:00,78.1,53.8,25.19,West,266,4.9,4.9,43,0.00,,---,0.00,VWS V14.01,2013-05-29 18:12:00,
2013-05-29 12:14:00,78.1,52.5,25.19,West,268,8.3,8.3,41,0.00,,---,0.00,VWS V14.01,2013-05-29 18:14:00,
2013-05-29 12:17:00,78.3,53.3,25.19,NW,320,4.9,6.3,42,0.00,,---,0.00,VWS V14.01,2013-05-29 18:17:00,
2013-05-29 12:18:00,78.3,53.3,25.19,SW,233,5.8,7.6,42,0.00,,---,0.00,VWS V14.01,2013-05-29 18:18:00,
2013-05-29 12:19:00,78.3,53.3,25.19,SW,233,5.8,5.8,42,0.00,,---,0.00,VWS V14.01,2013-05-29 18:19:00,
2013-05-29 12:20:00,78.3,53.3,25.19,West,281,3.6,5.8,42,0.00,,---,0.00,VWS V14.01,2013-05-29 18:20:00,
2013-05-29 12:23:00,77.9,53.0,25.19,SW,218,4.0,4.0,42,0.00,,---,0.00,VWS V14.01,2013-05-29 18:23:00,
2013-05-29 12:25:00,77.2,51.7,25.19,WSW,257,6.3,6.3,41,0.00,,---,0.00,VWS V14.01,2013-05-29 18:25:00,
2013-05-29 12:26:00,77.0,51.5,25.19,West,259,4.9,6.3,41,0.00,,---,0.00,VWS V14.01,2013-05-29 18:26:00,
2013-05-29 12:27:00,76.5,51.7,25.19,West,259,4.9,4.9,42,0.00,,---,0.00,VWS V14.01,2013-05-29 18:27:00,
2013-05-29 12:30:00,75.6,51.5,25.19,West,279,8.1,8.1,43,0.00,,---,0.00,VWS V14.01,2013-05-29 18:30:00,
2013-05-29 12:32:00,75.2,51.2,25.19,West,279,3.1,4.9,43,0.00,,---,0.00,VWS V14.01,2013-05-29 18:32:00,
2013-05-29 12:34:00,75.2,51.2,25.22,WSW,242,4.0,4.0,43,0.00,,---,0.00,VWS V14.01,2013-05-29 18:34:00,
2013-05-29 12:35:00,75.2,51.2,25.22,SSW,213,5.4,5.4,43,0.00,,---,0.00,VWS V14.01,2013-05-29 18:35:00,
2013-05-29 12:38:00,73.0,52.8,25.22,West,260,2.7,3.1,49,0.00,,---,0.00,VWS V14.01,2013-05-29 18:38:00,
2013-05-29 12:40:00,72.9,52.6,25.22,SW,230,3.6,3.6,49,0.00,,---,0.00,VWS V14.01,2013-05-29 18:40:00,
2013-05-29 12:43:00,72.9,52.6,25.22,WNW,284,3.1,3.1,49,0.00,,---,0.00,VWS V14.01,2013-05-29 18:43:00,
2013-05-29 12:44:00,72.9,52.6,25.22,West,262,3.1,3.1,49,0.04,,---,0.04,VWS V14.01,2013-05-29 18:44:00,
2013-05-29 12:45:00,72.9,52.6,25.22,West,279,4.9,4.9,49,0.04,,---,0.04,VWS V14.01,2013-05-29 18:45:00,
2013-05-29 12:46:00,72.3,52.1,25.22,WSW,253,4.9,4.9,49,0.04,,---,0.04,VWS V14.01,2013-05-29 18:46:00,
2013-05-29 12:50:00,72.1,54.1,25.19,WSW,247,3.1,6.3,53,0.04,,---,0.04,VWS V14.01,2013-05-29 18:50:00,
2013-05-29 12:51:00,72.0,52.9,25.19,SW,218,5.4,5.4,51,0.04,,---,0.04,VWS V14.01,2013-05-29 18:51:00,
2013-05-29 12:53:00,71.8,53.2,25.19,SW,224,3.6,3.6,52,0.04,,---,0.04,VWS V14.01,2013-05-29 18:53:00,
2013-05-29 12:55:00,71.4,53.4,25.19,WSW,252,5.4,6.3,53,0.04,,---,0.04,VWS V14.01,2013-05-29 18:55:00,
2013-05-29 12:56:00,71.4,53.4,25.19,West,261,5.4,5.8,53,0.04,,---,0.04,VWS V14.01,2013-05-29 18:56:00,
2013-05-29 12:57:00,71.2,52.7,25.19,WNW,287,5.4,5.4,52,0.04,,---,0.04,VWS V14.01,2013-05-29 18:57:00,
2013-05-29 12:58:00,71.2,53.2,25.19,South,187,4.0,5.4,53,0.04,,---,0.04,VWS V14.01,2013-05-29 18:58:00,
2013-05-29 13:00:00,71.2,53.2,25.19,SW,220,3.1,4.5,53,0.04,,---,0.04,VWS V14.01,2013-05-29 19:00:00,
2013-05-29 13:03:00,71.1,54.1,25.19,WNW,288,2.7,2.7,55,0.04,,---,0.04,VWS V14.01,2013-05-29 19:03:00,
2013-05-29 13:05:00,71.2,54.3,25.19,WNW,289,0.0,0.0,55,0.04,,---,0.04,VWS V14.01,2013-05-29 19:05:00,
2013-05-29 13:06:00,71.2,54.3,25.19,SE,126,2.7,3.1,55,0.04,,---,0.04,VWS V14.01,2013-05-29 19:06:00,
2013-05-29 13:10:00,71.2,55.2,25.19,SE,129,2.7,3.6,57,0.04,,---,0.04,VWS V14.01,2013-05-29 19:10:00,
2013-05-29 13:11:00,71.2,55.2,25.19,ESE,114,3.1,4.0,57,0.04,,---,0.04,VWS V14.01,2013-05-29 19:11:00,
2013-05-29 13:12:00,71.2,57.1,25.19,ESE,114,3.1,3.1,61,0.04,,---,0.04,VWS V14.01,2013-05-29 19:12:00,
2013-05-29 13:16:00,71.1,57.0,25.19,SE,128,4.0,4.0,61,0.04,,---,0.04,VWS V14.01,2013-05-29 19:16:00,
2013-05-29 13:17:00,71.1,57.0,25.19,SE,143,4.9,5.4,61,0.04,,---,0.04,VWS V14.01,2013-05-29 19:17:00,
2013-05-29 13:21:00,70.7,57.9,25.19,SE,132,3.6,5.8,64,0.04,,---,0.04,VWS V14.01,2013-05-29 19:21:00,
2013-05-29 13:22:00,70.5,57.8,25.19,East,91,2.2,3.6,64,0.04,,---,0.04,VWS V14.01,2013-05-29 19:22:00,
2013-05-29 13:24:00,70.5,57.8,25.19,SE,126,3.1,3.1,64,0.04,,---,0.04,VWS V14.01,2013-05-29 19:24:00,
2013-05-29 13:26:00,70.3,58.9,25.19,SE,144,2.7,3.1,67,0.04,,---,0.04,VWS V14.01,2013-05-29 19:26:00,
2013-05-29 13:27:00,70.3,58.9,25.19,ESE,115,5.8,5.8,67,0.04,,---,0.04,VWS V14.01,2013-05-29 19:27:00,
2013-05-29 13:29:00,70.3,58.9,25.19,ESE,103,2.7,4.0,67,0.04,,---,0.04,VWS V14.01,2013-05-29 19:29:00,
2013-05-29 13:32:00,69.6,58.2,25.19,East,95,3.6,3.6,67,0.04,,---,0.04,VWS V14.01,2013-05-29 19:32:00,
2013-05-29 13:33:00,69.4,58.8,25.19,ESE,105,2.7,3.6,69,0.04,,---,0.04,VWS V14.01,2013-05-29 19:33:00,
2013-05-29 13:35:00,69.3,59.1,25.19,NE,56,0.0,3.6,70,0.04,,---,0.04,VWS V14.01,2013-05-29 19:35:00,
2013-05-29 13:37:00,69.3,59.1,25.19,East,88,2.2,2.2,70,0.04,,---,0.04,VWS V14.01,2013-05-29 19:37:00,
2013-05-29 13:38:00,68.9,58.7,25.19,East,88,0.0,2.2,70,0.04,,---,0.04,VWS V14.01,2013-05-29 19:38:00,
2013-05-29 13:42:00,68.7,58.5,25.19,North,357,0.0,2.7,70,0.04,,---,0.04,VWS V14.01,2013-05-29 19:42:00,
2013-05-29 13:43:00,68.5,58.8,25.19,North,357,0.0,0.0,71,0.04,,---,0.04,VWS V14.01,2013-05-29 19:43:00,
2013-05-29 13:44:00,68.5,58.8,25.19,North,357,0.0,0.0,71,0.04,,---,0.04,VWS V14.01,2013-05-29 19:44:00,
2013-05-29 13:45:00,68.5,58.8,25.19,NW,326,3.1,3.6,71,0.00,,---,0.04,VWS V14.01,2013-05-29 19:45:00,
2013-05-29 13:48:00,68.5,59.2,25.19,ESE,113,4.5,4.5,72,0.00,,---,0.04,VWS V14.01,2013-05-29 19:48:00,
2013-05-29 13:49:00,68.4,59.8,25.19,NE,55,4.0,4.5,74,0.00,,---,0.04,VWS V14.01,2013-05-29 19:49:00,
2013-05-29 13:51:00,68.4,59.8,25.19,East,89,5.4,5.4,74,0.00,,---,0.04,VWS V14.01,2013-05-29 19:51:00,
2013-05-29 13:53:00,68.0,59.4,25.19,East,94,0.0,5.4,74,0.00,,---,0.04,VWS V14.01,2013-05-29 19:53:00,
2013-05-29 13:55:00,67.6,60.2,25.19,East,79,2.7,3.1,77,0.00,,---,0.04,VWS V14.01,2013-05-29 19:55:00,
2013-05-29 13:57:00,67.6,60.2,25.19,East,82,3.6,3.6,77,0.00,,---,0.04,VWS V14.01,2013-05-29 19:57:00,
2013-05-29 13:58:00,67.6,60.2,25.19,East,91,2.2,3.6,77,0.00,,---,0.04,VWS V14.01,2013-05-29 19:58:00,
2013-05-29 13:59:00,67.3,60.2,25.19,East,86,0.0,2.2,78,0.00,,---,0.04,VWS V14.01,2013-05-29 19:59:00,
2013-05-29 14:01:00,67.3,60.2,25.19,ESE,104,0.0,2.7,78,0.00,,---,0.04,VWS V14.01,2013-05-29 20:01:00,
2013-05-29 14:04:00,67.1,60.4,25.19,ESE,114,0.0,0.0,79,0.00,,---,0.04,VWS V14.01,2013-05-29 20:04:00,
2013-05-29 14:05:00,67.1,60.4,25.19,East,101,2.7,2.7,79,0.00,,---,0.04,VWS V14.01,2013-05-29 20:05:00,
2013-05-29 14:07:00,66.9,60.6,25.19,East,101,0.0,2.7,80,0.00,,---,0.04,VWS V14.01,2013-05-29 20:07:00,
2013-05-29 14:11:00,66.7,60.7,25.19,NE,46,3.1,3.1,81,0.00,,---,0.04,VWS V14.01,2013-05-29 20:11:00,
2013-05-29 14:13:00,66.6,60.6,25.19,NE,40,3.6,4.0,81,0.00,,---,0.04,VWS V14.01,2013-05-29 20:13:00,
2013-05-29 14:14:00,66.6,60.6,25.19,East,101,0.0,3.6,81,0.00,,---,0.04,VWS V14.01,2013-05-29 20:14:00,
2013-05-29 14:15:00,66.4,60.4,25.19,East,81,2.2,4.0,81,0.00,,---,0.04,VWS V14.01,2013-05-29 20:15:00,
2013-05-29 14:18:00,66.2,60.2,25.19,SE,130,0.0,0.0,81,0.00,,---,0.04,VWS V14.01,2013-05-29 20:18:00,
2013-05-29 14:19:00,66.2,60.2,25.19,SE,130,0.0,0.0,81,0.00,,---,0.04,VWS V14.01,2013-05-29 20:19:00,
2013-05-29 14:22:00,65.8,59.8,25.19,SE,130,0.0,0.0,81,0.00,,---,0.04,VWS V14.01,2013-05-29 20:22:00,
2013-05-29 14:23:00,65.8,59.8,25.19,NNE,17,2.7,2.7,81,0.00,,---,0.04,VWS V14.01,2013-05-29 20:23:00,
2013-05-29 14:27:00,65.7,60.0,25.19,NW,310,3.1,3.1,82,0.08,,---,0.12,VWS V14.01,2013-05-29 20:27:00,
2013-05-29 14:29:00,65.7,60.4,25.19,NNW,334,2.7,4.0,83,0.08,,---,0.12,VWS V14.01,2013-05-29 20:29:00,
2013-05-29 14:31:00,65.5,60.2,25.19,WNW,297,3.6,3.6,83,0.08,,---,0.12,VWS V14.01,2013-05-29 20:31:00,
2013-05-29 14:34:00,65.3,60.0,25.19,West,270,2.2,2.7,83,0.08,,---,0.12,VWS V14.01,2013-05-29 20:34:00,
2013-05-29 14:36:00,65.1,60.2,25.19,WSW,258,0.0,2.2,84,0.08,,---,0.12,VWS V14.01,2013-05-29 20:36:00,
2013-05-29 14:37:00,65.1,60.2,25.19,SSW,199,0.0,0.0,84,0.08,,---,0.12,VWS V14.01,2013-05-29 20:37:00,
2013-05-29 14:38:00,65.1,60.2,25.19,ESE,123,0.0,0.0,84,0.08,,---,0.12,VWS V14.01,2013-05-29 20:38:00,
2013-05-29 14:39:00,64.9,60.0,25.19,ESE,115,0.0,0.0,84,0.08,,---,0.12,VWS V14.01,2013-05-29 20:39:00,
2013-05-29 14:41:00,65.1,61.2,25.19,ENE,60,0.0,0.0,87,0.08,,---,0.12,VWS V14.01,2013-05-29 20:41:00,
2013-05-29 14:42:00,64.9,61.0,25.19,ENE,70,0.0,0.0,87,0.08,,---,0.12,VWS V14.01,2013-05-29 20:42:00,
2013-05-29 14:43:00,64.9,61.0,25.19,East,83,0.0,0.0,87,0.08,,---,0.12,VWS V14.01,2013-05-29 20:43:00,
2013-05-29 14:46:00,64.8,60.8,25.19,ESE,120,0.0,0.0,87,0.08,,---,0.12,VWS V14.01,2013-05-29 20:46:00,
2013-05-29 14:48:00,64.8,60.8,25.22,SE,133,0.0,0.0,87,0.08,,---,0.12,VWS V14.01,2013-05-29 20:48:00,
2013-05-29 14:50:00,64.6,60.6,25.22,SE,133,0.0,0.0,87,0.08,,---,0.12,VWS V14.01,2013-05-29 20:50:00,
2013-05-29 14:51:00,64.6,60.6,25.22,SE,133,0.0,0.0,87,0.08,,---,0.12,VWS V14.01,2013-05-29 20:51:00,
2013-05-29 14:52:00,64.6,60.6,25.22,SE,133,0.0,0.0,87,0.08,,---,0.12,VWS V14.01,2013-05-29 20:52:00,
2013-05-29 14:54:00,64.6,61.0,25.22,SE,133,0.0,0.0,88,0.98,,---,1.02,VWS V14.01,2013-05-29 20:54:00,
2013-05-29 14:56:00,64.6,61.3,25.22,ENE,74,3.6,3.6,89,0.98,,---,1.02,VWS V14.01,2013-05-29 20:56:00,
2013-05-29 14:58:00,64.4,61.1,25.22,East,100,2.7,2.7,89,1.02,,---,1.06,VWS V14.01,2013-05-29 20:58:00,
2013-05-29 14:59:00,64.4,61.1,25.22,SE,146,0.0,3.1,89,1.02,,---,1.06,VWS V14.01,2013-05-29 20:59:00,
2013-05-29 15:00:00,64.4,61.1,25.22,South,185,0.0,0.0,89,1.02,,---,1.06,VWS V14.01,2013-05-29 21:00:00,
2013-05-29 15:01:00,64.2,60.9,25.22,South,186,0.0,0.0,89,1.02,,---,1.06,VWS V14.01,2013-05-29 21:01:00,
2013-05-29 15:06:00,63.9,60.6,25.22,SSE,162,0.0,0.0,89,1.22,,---,1.26,VWS V14.01,2013-05-29 21:06:00,
2013-05-29 15:07:00,63.9,60.6,25.22,SSE,162,0.0,0.0,89,1.22,,---,1.26,VWS V14.01,2013-05-29 21:07:00,
2013-05-29 15:08:00,63.9,60.6,25.22,SSE,162,0.0,0.0,89,1.22,,---,1.26,VWS V14.01,2013-05-29 21:08:00,
2013-05-29 15:11:00,63.7,60.7,25.22,SSE,160,0.0,2.2,90,1.34,,---,1.38,VWS V14.01,2013-05-29 21:11:00,
2013-05-29 15:13:00,63.5,60.5,25.22,SSE,161,0.0,0.0,90,1.34,,---,1.38,VWS V14.01,2013-05-29 21:13:00,
2013-05-29 15:18:00,63.1,60.2,25.22,SSE,161,0.0,0.0,90,1.42,,---,1.46,VWS V14.01,2013-05-29 21:18:00,
2013-05-29 15:20:00,63.0,60.0,25.22,SSE,161,0.0,0.0,90,1.42,,---,1.46,VWS V14.01,2013-05-29 21:20:00,
2013-05-29 15:21:00,63.0,60.0,25.22,SSE,162,0.0,0.0,90,1.42,,---,1.46,VWS V14.01,2013-05-29 21:21:00,
2013-05-29 15:23:00,63.0,60.3,25.22,SE,137,2.2,4.0,91,1.46,,---,1.50,VWS V14.01,2013-05-29 21:23:00,
2013-05-29 15:26:00,63.1,60.5,25.22,NNE,20,2.7,2.7,91,1.46,,---,1.50,VWS V14.01,2013-05-29 21:26:00,
2013-05-29 15:28:00,63.1,60.5,25.22,NNE,12,0.0,2.2,91,1.38,,---,1.50,VWS V14.01,2013-05-29 21:28:00,
2013-05-29 15:29:00,63.1,60.5,25.22,NW,307,2.2,2.2,91,1.38,,---,1.50,VWS V14.01,2013-05-29 21:29:00,
2013-05-29 15:30:00,63.3,61.0,25.22,NW,307,2.2,2.2,92,1.38,,---,1.50,VWS V14.01,2013-05-29 21:30:00,
2013-05-29 15:33:00,63.1,60.8,25.22,NNW,332,0.0,0.0,92,1.38,,---,1.50,VWS V14.01,2013-05-29 21:33:00,
2013-05-29 15:35:00,63.1,60.8,25.22,NNW,332,0.0,0.0,92,1.38,,---,1.50,VWS V14.01,2013-05-29 21:35:00,
2013-05-29 15:37:00,63.1,60.8,25.22,WNW,285,0.0,0.0,92,1.38,,---,1.50,VWS V14.01,2013-05-29 21:37:00,
2013-05-29 15:39:00,62.8,60.1,25.22,SW,218,0.0,0.0,91,1.38,,---,1.50,VWS V14.01,2013-05-29 21:39:00,
2013-05-29 15:40:00,62.8,60.1,25.22,SW,226,0.0,0.0,91,1.38,,---,1.50,VWS V14.01,2013-05-29 21:40:00,
2013-05-29 15:44:00,62.6,59.9,25.22,SW,232,0.0,0.0,91,1.50,,---,1.61,VWS V14.01,2013-05-29 21:44:00,
2013-05-29 15:45:00,62.4,60.1,25.22,SW,228,0.0,0.0,92,1.50,,---,1.61,VWS V14.01,2013-05-29 21:45:00,
2013-05-29 15:47:00,62.4,60.1,25.22,SW,228,0.0,0.0,92,1.50,,---,1.61,VWS V14.01,2013-05-29 21:47:00,
2013-05-29 15:51:00,62.2,59.9,25.22,SW,223,0.0,0.0,92,1.50,,---,1.61,VWS V14.01,2013-05-29 21:51:00,
2013-05-29 15:52:00,62.2,59.9,25.22,SW,223,0.0,0.0,92,1.50,,---,1.61,VWS V14.01,2013-05-29 21:52:00,
2013-05-29 15:53:00,62.2,59.9,25.22,SW,223,0.0,0.0,92,1.50,,---,1.61,VWS V14.01,2013-05-29 21:53:00,
2013-05-29 15:54:00,62.2,59.9,25.22,SW,223,0.0,0.0,92,1.50,,---,1.61,VWS V14.01,2013-05-29 21:54:00,
2013-05-29 15:56:00,62.4,60.4,25.22,SW,223,0.0,0.0,93,0.59,,---,1.61,VWS V14.01,2013-05-29 21:56:00,
2013-05-29 15:57:00,62.4,60.4,25.22,SW,223,0.0,0.0,93,0.59,,---,1.61,VWS V14.01,2013-05-29 21:57:00,
2013-05-29 15:58:00,62.4,60.4,25.22,SW,223,0.0,0.0,93,0.59,,---,1.61,VWS V14.01,2013-05-29 21:58:00,
2013-05-29 16:03:00,62.6,60.5,25.22,SW,233,2.2,3.1,93,0.55,,---,1.61,VWS V14.01,2013-05-29 22:03:00,
2013-05-29 16:04:00,62.6,60.5,25.22,SW,233,2.2,2.2,93,0.55,,---,1.61,VWS V14.01,2013-05-29 22:04:00,
2013-05-29 16:05:00,62.6,60.5,25.22,SW,230,0.0,2.2,93,0.35,,---,1.61,VWS V14.01,2013-05-29 22:05:00,
2013-05-29 16:09:00,62.6,60.5,25.22,SW,226,0.0,0.0,93,0.39,,---,1.65,VWS V14.01,2013-05-29 22:09:00,
2013-05-29 16:10:00,62.4,60.4,25.22,SW,226,0.0,0.0,93,0.28,,---,1.65,VWS V14.01,2013-05-29 22:10:00,
2013-05-29 16:11:00,62.4,60.4,25.22,SW,226,0.0,0.0,93,0.28,,---,1.65,VWS V14.01,2013-05-29 22:11:00,
2013-05-29 16:13:00,62.4,60.4,25.22,SW,226,0.0,0.0,93,0.31,,---,1.69,VWS V14.01,2013-05-29 22:13:00,
2013-05-29 16:14:00,62.4,60.4,25.22,SW,226,0.0,0.0,93,0.31,,---,1.69,VWS V14.01,2013-05-29 22:14:00,
2013-05-29 16:15:00,62.4,60.4,25.22,SW,226,0.0,0.0,93,0.31,,---,1.69,VWS V14.01,2013-05-29 22:15:00,
2013-05-29 16:18:00,62.6,60.5,25.22,SW,226,0.0,0.0,93,0.24,,---,1.69,VWS V14.01,2013-05-29 22:18:00,
2013-05-29 16:19:00,62.6,60.5,25.22,SW,226,0.0,0.0,93,0.24,,---,1.69,VWS V14.01,2013-05-29 22:19:00,
2013-05-29 16:23:00,62.6,60.5,25.22,SW,226,0.0,0.0,93,0.24,,---,1.69,VWS V14.01,2013-05-29 22:23:00,
2013-05-29 16:24:00,62.6,60.5,25.22,SW,226,0.0,0.0,93,0.20,,---,1.69,VWS V14.01,2013-05-29 22:24:00,
2013-05-29 16:25:00,62.6,60.5,25.22,SW,226,0.0,0.0,93,0.20,,---,1.69,VWS V14.01,2013-05-29 22:25:00,
2013-05-29 16:28:00,62.4,60.7,25.22,SW,226,0.0,0.0,94,0.20,,---,1.69,VWS V14.01,2013-05-29 22:28:00,
2013-05-29 16:29:00,62.4,60.7,25.22,SW,226,0.0,0.0,94,0.20,,---,1.69,VWS V14.01,2013-05-29 22:29:00,
2013-05-29 16:30:00,62.4,60.7,25.22,SW,226,0.0,0.0,94,0.20,,---,1.69,VWS V14.01,2013-05-29 22:30:00,
2013-05-29 16:31:00,62.6,60.5,25.22,SW,226,0.0,0.0,93,0.20,,---,1.69,VWS V14.01,2013-05-29 22:31:00,
2013-05-29 16:33:00,62.6,60.5,25.22,SW,226,0.0,0.0,93,0.28,,---,1.77,VWS V14.01,2013-05-29 22:33:00,
2013-05-29 16:35:00,62.6,60.5,25.22,SW,226,0.0,0.0,93,0.28,,---,1.77,VWS V14.01,2013-05-29 22:35:00,
2013-05-29 16:41:00,62.4,60.7,25.22,SW,226,0.0,0.0,94,0.31,,---,1.81,VWS V14.01,2013-05-29 22:41:00,
2013-05-29 16:42:00,62.4,60.7,25.22,SW,226,0.0,0.0,94,0.31,,---,1.81,VWS V14.01,2013-05-29 22:42:00,
2013-05-29 16:46:00,62.2,60.5,25.22,SW,226,0.0,0.0,94,0.20,,---,1.81,VWS V14.01,2013-05-29 22:46:00,
2013-05-29 16:47:00,62.2,60.8,25.22,SW,226,0.0,0.0,95,0.20,,---,1.81,VWS V14.01,2013-05-29 22:47:00,
2013-05-29 16:49:00,62.2,60.8,25.22,SW,226,0.0,0.0,95,0.20,,---,1.81,VWS V14.01,2013-05-29 22:49:00,
2013-05-29 16:51:00,62.2,60.8,25.22,SW,226,0.0,0.0,95,0.20,,---,1.81,VWS V14.01,2013-05-29 22:51:00,
2013-05-29 16:52:00,62.2,60.8,25.22,SW,226,0.0,0.0,95,0.31,,---,1.93,VWS V14.01,2013-05-29 22:52:00,
2013-05-29 16:53:00,62.2,60.8,25.22,SW,226,0.0,0.0,95,0.31,,---,1.93,VWS V14.01,2013-05-29 22:53:00,
2013-05-29 16:57:00,62.2,60.8,25.22,SW,226,0.0,0.0,95,0.31,,---,1.93,VWS V14.01,2013-05-29 22:57:00,
2013-05-29 16:59:00,62.2,60.8,25.22,SW,226,0.0,0.0,95,0.31,,---,1.93,VWS V14.01,2013-05-29 22:59:00,
2013-05-29 17:01:00,62.2,60.8,25.22,SW,226,0.0,0.0,95,0.31,,---,1.93,VWS V14.01,2013-05-29 23:01:00,
2013-05-29 17:04:00,62.2,60.8,25.22,SW,226,0.0,0.0,95,0.31,,---,1.93,VWS V14.01,2013-05-29 23:04:00,
2013-05-29 17:05:00,62.2,60.8,25.22,SW,226,0.0,0.0,95,0.35,,---,1.97,VWS V14.01,2013-05-29 23:05:00,
2013-05-29 17:06:00,62.2,60.8,25.22,SW,226,0.0,0.0,95,0.35,,---,1.97,VWS V14.01,2013-05-29 23:06:00,
2013-05-29 17:07:00,62.2,60.8,25.22,SW,226,0.0,0.0,95,0.31,,---,1.97,VWS V14.01,2013-05-29 23:07:00,
2013-05-29 17:10:00,62.2,60.8,25.22,SW,227,0.0,0.0,95,0.31,,---,1.97,VWS V14.01,2013-05-29 23:10:00,
2013-05-29 17:13:00,62.2,61.1,25.22,SW,227,0.0,0.0,96,0.31,,---,1.97,VWS V14.01,2013-05-29 23:13:00,
2013-05-29 17:16:00,62.2,61.1,25.22,SW,227,0.0,0.0,96,0.31,,---,2.01,VWS V14.01,2013-05-29 23:16:00,
2013-05-29 17:17:00,62.4,61.3,25.22,SW,227,0.0,0.0,96,0.31,,---,2.01,VWS V14.01,2013-05-29 23:17:00,
2013-05-29 17:18:00,62.4,61.3,25.22,SW,227,0.0,0.0,96,0.31,,---,2.01,VWS V14.01,2013-05-29 23:18:00,
2013-05-29 17:19:00,62.4,61.3,25.22,SW,227,0.0,0.0,96,0.31,,---,2.01,VWS V14.01,2013-05-29 23:19:00,
2013-05-29 17:21:00,62.4,61.3,25.22,SW,227,0.0,0.0,96,0.31,,---,2.01,VWS V14.01,2013-05-29 23:21:00,
2013-05-29 17:24:00,62.4,61.3,25.22,SW,227,0.0,0.0,96,0.31,,---,2.01,VWS V14.01,2013-05-29 23:24:00,
2013-05-29 17:25:00,62.4,61.3,25.22,SW,227,0.0,0.0,96,0.31,,---,2.01,VWS V14.01,2013-05-29 23:25:00,
2013-05-29 17:27:00,62.4,61.3,25.22,SW,227,0.0,0.0,96,0.31,,---,2.01,VWS V14.01,2013-05-29 23:27:00,
2013-05-29 17:28:00,62.4,61.3,25.22,SW,227,0.0,0.0,96,0.31,,---,2.01,VWS V14.01,2013-05-29 23:28:00,
2013-05-29 17:30:00,62.4,61.3,25.22,SW,227,0.0,0.0,96,0.31,,---,2.01,VWS V14.01,2013-05-29 23:30:00,
2013-05-29 17:34:00,62.4,61.3,25.22,SW,227,0.0,0.0,96,0.28,,---,2.05,VWS V14.01,2013-05-29 23:34:00,
2013-05-29 17:35:00,62.4,61.3,25.22,SW,227,0.0,0.0,96,0.28,,---,2.05,VWS V14.01,2013-05-29 23:35:00,
2013-05-29 17:37:00,62.4,61.3,25.22,SW,227,0.0,0.0,96,0.28,,---,2.05,VWS V14.01,2013-05-29 23:37:00,
2013-05-29 17:39:00,62.4,61.3,25.22,SW,227,0.0,0.0,96,0.28,,---,2.05,VWS V14.01,2013-05-29 23:39:00,
2013-05-29 17:40:00,62.6,61.5,25.22,SW,227,0.0,0.0,96,0.28,,---,2.05,VWS V14.01,2013-05-29 23:40:00,
2013-05-29 17:41:00,62.6,61.5,25.22,SW,227,0.0,0.0,96,0.24,,---,2.05,VWS V14.01,2013-05-29 23:41:00,
2013-05-29 17:43:00,62.6,61.5,25.22,SW,227,0.0,0.0,96,0.24,,---,2.05,VWS V14.01,2013-05-29 23:43:00,
2013-05-29 17:47:00,62.6,61.5,25.25,SW,227,0.0,0.0,96,0.24,,---,2.05,VWS V14.01,2013-05-29 23:47:00,
2013-05-29 17:48:00,62.6,61.5,25.25,SW,227,0.0,0.0,96,0.24,,---,2.05,VWS V14.01,2013-05-29 23:48:00,
2013-05-29 17:49:00,62.6,61.5,25.25,SW,227,0.0,0.0,96,0.24,,---,2.05,VWS V14.01,2013-05-29 23:49:00,
2013-05-29 17:54:00,62.6,61.5,25.25,SW,227,0.0,0.0,96,0.12,,---,2.05,VWS V14.01,2013-05-29 23:54:00,
2013-05-29 17:55:00,62.6,61.5,25.25,SW,227,0.0,0.0,96,0.12,,---,2.05,VWS V14.01,2013-05-29 23:55:00,
2013-05-29 17:56:00,62.6,61.5,25.25,SW,227,0.0,0.0,96,0.12,,---,2.05,VWS V14.01,2013-05-29 23:56:00,
2013-05-29 17:57:00,62.6,61.5,25.25,SW,224,0.0,0.0,96,0.12,,---,2.05,VWS V14.01,2013-05-29 23:57:00,
2013-05-29 17:59:00,62.6,61.5,25.25,SW,224,0.0,0.0,96,0.12,,---,2.05,VWS V14.01,2013-05-29 23:59:00,
2013-05-29 18:01:00,62.6,61.5,25.25,SW,224,0.0,0.0,96,0.12,,---,2.05,VWS V14.01,2013-05-30 00:01:00,
2013-05-29 18:04:00,62.6,61.5,25.25,SW,224,0.0,0.0,96,0.12,,---,2.05,VWS V14.01,2013-05-30 00:04:00,
2013-05-29 18:05:00,62.6,61.5,25.25,SW,224,0.0,0.0,96,0.12,,---,2.05,VWS V14.01,2013-05-30 00:05:00,
2013-05-29 18:08:00,62.6,61.5,25.25,SW,224,0.0,0.0,96,0.08,,---,2.05,VWS V14.01,2013-05-30 00:08:00,
2013-05-29 18:10:00,62.6,61.5,25.25,SW,224,0.0,0.0,96,0.08,,---,2.05,VWS V14.01,2013-05-30 00:10:00,
2013-05-29 18:11:00,62.6,61.5,25.25,SW,224,0.0,0.0,96,0.08,,---,2.05,VWS V14.01,2013-05-30 00:11:00,
2013-05-29 18:13:00,62.6,61.5,25.25,SW,224,0.0,0.0,96,0.12,,---,2.09,VWS V14.01,2013-05-30 00:13:00,
2013-05-29 18:14:00,62.4,61.6,25.25,SW,224,0.0,0.0,97,0.12,,---,2.09,VWS V14.01,2013-05-30 00:14:00,
2013-05-29 18:16:00,62.4,61.6,25.25,SW,224,0.0,0.0,97,0.12,,---,2.09,VWS V14.01,2013-05-30 00:16:00,
2013-05-29 18:19:00,62.4,61.6,25.25,SW,224,0.0,0.0,97,0.08,,---,2.09,VWS V14.01,2013-05-30 00:19:00,
2013-05-29 18:20:00,62.4,61.6,25.25,SW,224,0.0,0.0,97,0.08,,---,2.09,VWS V14.01,2013-05-30 00:20:00,
2013-05-29 18:24:00,62.4,61.6,25.25,SW,224,0.0,0.0,97,0.08,,---,2.09,VWS V14.01,2013-05-30 00:24:00,
2013-05-29 18:25:00,62.2,61.4,25.25,SW,227,0.0,0.0,97,0.08,,---,2.09,VWS V14.01,2013-05-30 00:25:00,
2013-05-29 18:26:00,62.2,61.4,25.25,SW,227,0.0,0.0,97,0.08,,---,2.09,VWS V14.01,2013-05-30 00:26:00,
2013-05-29 18:27:00,62.4,61.6,25.25,SW,227,0.0,0.0,97,0.08,,---,2.09,VWS V14.01,2013-05-30 00:27:00,
2013-05-29 18:30:00,62.4,61.6,25.25,SW,227,0.0,0.0,97,0.08,,---,2.09,VWS V14.01,2013-05-30 00:30:00,
2013-05-29 18:32:00,62.4,61.6,25.25,SW,223,0.0,0.0,97,0.08,,---,2.09,VWS V14.01,2013-05-30 00:32:00,
2013-05-29 18:35:00,62.2,61.4,25.25,SW,231,3.1,3.6,97,0.04,,---,2.09,VWS V14.01,2013-05-30 00:35:00,
2013-05-29 18:36:00,62.2,61.4,25.25,SW,227,2.2,3.1,97,0.04,,---,2.09,VWS V14.01,2013-05-30 00:36:00,
2013-05-29 18:40:00,62.2,61.4,25.25,SW,227,0.0,0.0,97,0.04,,---,2.09,VWS V14.01,2013-05-30 00:40:00,
2013-05-29 18:41:00,62.2,61.4,25.25,SW,227,0.0,0.0,97,0.04,,---,2.09,VWS V14.01,2013-05-30 00:41:00,
2013-05-29 18:42:00,62.2,61.4,25.25,SW,226,0.0,0.0,97,0.04,,---,2.09,VWS V14.01,2013-05-30 00:42:00,
2013-05-29 18:47:00,62.2,61.4,25.22,SW,219,0.0,0.0,97,0.04,,---,2.09,VWS V14.01,2013-05-30 00:47:00,
2013-05-29 18:48:00,62.2,61.4,25.22,SW,219,0.0,0.0,97,0.04,,---,2.09,VWS V14.01,2013-05-30 00:48:00,
2013-05-29 18:49:00,62.2,61.4,25.22,SW,219,0.0,0.0,97,0.04,,---,2.09,VWS V14.01,2013-05-30 00:49:00,
2013-05-29 18:52:00,62.2,61.7,25.22,SW,219,0.0,0.0,98,0.04,,---,2.09,VWS V14.01,2013-05-30 00:52:00,
2013-05-29 18:53:00,62.2,61.7,25.22,SW,219,0.0,0.0,98,0.04,,---,2.09,VWS V14.01,2013-05-30 00:53:00,
2013-05-29 18:54:00,62.2,61.7,25.22,SW,219,0.0,0.0,98,0.04,,---,2.09,VWS V14.01,2013-05-30 00:54:00,
2013-05-29 18:55:00,62.2,61.7,25.22,SW,219,0.0,0.0,98,0.04,,---,2.09,VWS V14.01,2013-05-30 00:55:00,
2013-05-29 18:58:00,62.2,61.7,25.22,SW,219,0.0,0.0,98,0.04,,---,2.09,VWS V14.01,2013-05-30 00:58:00,
2013-05-29 18:59:00,62.1,61.5,25.22,SW,219,0.0,0.0,98,0.04,,---,2.09,VWS V14.01,2013-05-30 00:59:00,
2013-05-29 19:01:00,62.1,61.5,25.22,SW,219,0.0,0.0,98,0.04,,---,2.09,VWS V14.01,2013-05-30 01:01:00,
2013-05-29 19:04:00,62.1,61.5,25.22,SW,219,0.0,0.0,98,0.04,,---,2.09,VWS V14.01,2013-05-30 01:04:00,
2013-05-29 19:05:00,62.1,61.5,25.22,SW,219,0.0,0.0,98,0.04,,---,2.09,VWS V14.01,2013-05-30 01:05:00,
2013-05-29 19:08:00,62.1,61.5,25.25,SW,219,0.0,0.0,98,0.04,,---,2.09,VWS V14.01,2013-05-30 01:08:00,
2013-05-29 19:11:00,62.1,61.5,25.25,SW,219,0.0,0.0,98,0.04,,---,2.09,VWS V14.01,2013-05-30 01:11:00,
2013-05-29 19:13:00,62.1,61.5,25.25,SW,219,0.0,0.0,98,0.04,,---,2.09,VWS V14.01,2013-05-30 01:13:00,
2013-05-29 19:14:00,62.1,61.5,25.25,SW,219,0.0,0.0,98,0.00,,---,2.09,VWS V14.01,2013-05-30 01:14:00,
2013-05-29 19:16:00,62.1,61.5,25.25,SW,219,0.0,0.0,98,0.00,,---,2.09,VWS V14.01,2013-05-30 01:16:00,
2013-05-29 19:20:00,62.1,61.5,25.25,SW,219,0.0,0.0,98,0.00,,---,2.09,VWS V14.01,2013-05-30 01:20:00,
2013-05-29 19:22:00,62.1,61.5,25.25,SW,219,0.0,0.0,98,0.00,,---,2.09,VWS V14.01,2013-05-30 01:22:00,
2013-05-29 19:23:00,61.9,61.3,25.25,SW,219,0.0,0.0,98,0.00,,---,2.09,VWS V14.01,2013-05-30 01:23:00,
2013-05-29 19:25:00,61.9,61.3,25.25,SW,219,0.0,0.0,98,0.00,,---,2.09,VWS V14.01,2013-05-30 01:25:00,
2013-05-29 19:28:00,61.9,61.3,25.25,SW,219,0.0,0.0,98,0.00,,---,2.09,VWS V14.01,2013-05-30 01:28:00,
2013-05-29 19:29:00,61.9,61.3,25.25,SW,219,0.0,0.0,98,0.00,,---,2.09,VWS V14.01,2013-05-30 01:29:00,
2013-05-29 19:30:00,61.9,61.3,25.25,SW,219,0.0,0.0,98,0.00,,---,2.09,VWS V14.01,2013-05-30 01:30:00,
2013-05-29 19:33:00,61.9,61.3,25.25,SW,219,0.0,0.0,98,0.00,,---,2.09,VWS V14.01,2013-05-30 01:33:00,
2013-05-29 19:35:00,61.7,61.1,25.25,SW,219,0.0,0.0,98,0.00,,---,2.09,VWS V14.01,2013-05-30 01:35:00,
2013-05-29 19:37:00,61.7,61.1,25.25,SW,219,0.0,0.0,98,0.00,,---,2.09,VWS V14.01,2013-05-30 01:37:00,
2013-05-29 19:38:00,61.7,61.1,25.25,SW,219,0.0,0.0,98,0.00,,---,2.09,VWS V14.01,2013-05-30 01:38:00,
2013-05-29 19:42:00,61.7,61.1,25.25,SW,219,0.0,0.0,98,0.00,,---,2.09,VWS V14.01,2013-05-30 01:42:00,
2013-05-29 19:43:00,61.7,61.1,25.25,SW,219,0.0,0.0,98,0.00,,---,2.09,VWS V14.01,2013-05-30 01:43:00,
2013-05-29 19:45:00,61.7,61.1,25.25,SW,219,0.0,0.0,98,0.00,,---,2.09,VWS V14.01,2013-05-30 01:45:00,
2013-05-29 19:47:00,61.7,61.1,25.25,SW,219,0.0,0.0,98,0.00,,---,2.09,VWS V14.01,2013-05-30 01:47:00,
2013-05-29 19:48:00,61.7,61.1,25.25,SW,219,0.0,0.0,98,0.00,,---,2.09,VWS V14.01,2013-05-30 01:48:00,
2013-05-29 19:52:00,61.5,61.0,25.25,SW,219,0.0,0.0,98,0.00,,---,2.09,VWS V14.01,2013-05-30 01:52:00,
2013-05-29 19:53:00,61.5,61.0,25.25,SW,219,0.0,0.0,98,0.00,,---,2.09,VWS V14.01,2013-05-30 01:53:00,
2013-05-29 19:54:00,61.5,61.0,25.25,SW,219,0.0,0.0,98,0.00,,---,2.09,VWS V14.01,2013-05-30 01:54:00,
2013-05-29 19:56:00,61.5,61.0,25.25,SW,219,0.0,0.0,98,0.00,,---,2.09,VWS V14.01,2013-05-30 01:56:00,
2013-05-29 19:58:00,61.5,61.0,25.25,SW,219,0.0,0.0,98,0.00,,---,2.09,VWS V14.01,2013-05-30 01:58:00,
2013-05-29 20:03:00,61.7,61.1,25.25,SW,219,0.0,0.0,98,0.00,,---,2.09,VWS V14.01,2013-05-30 02:03:00,
2013-05-29 20:04:00,61.7,61.1,25.25,SW,219,0.0,0.0,98,0.00,,---,2.09,VWS V14.01,2013-05-30 02:04:00,
2013-05-29 20:05:00,61.5,61.0,25.25,SW,219,0.0,0.0,98,0.00,,---,2.09,VWS V14.01,2013-05-30 02:05:00,
2013-05-29 20:06:00,61.5,61.0,25.25,SW,219,0.0,0.0,98,0.00,,---,2.09,VWS V14.01,2013-05-30 02:06:00,
2013-05-29 20:07:00,61.5,61.0,25.25,SW,219,0.0,0.0,98,0.00,,---,2.09,VWS V14.01,2013-05-30 02:07:00,
2013-05-29 20:10:00,61.5,61.0,25.25,SW,219,0.0,0.0,98,0.00,,---,2.09,VWS V14.01,2013-05-30 02:10:00,
2013-05-29 20:11:00,61.5,61.0,25.25,SW,219,0.0,0.0,98,0.00,,---,2.09,VWS V14.01,2013-05-30 02:11:00,
2013-05-29 20:14:00,61.5,61.0,25.25,SW,219,0.0,0.0,98,0.00,,---,2.09,VWS V14.01,2013-05-30 02:14:00,
2013-05-29 20:15:00,61.5,61.0,25.25,SW,219,0.0,0.0,98,0.00,,---,2.09,VWS V14.01,2013-05-30 02:15:00,
2013-05-29 20:18:00,61.5,61.0,25.25,SW,219,0.0,0.0,98,0.00,,---,2.09,VWS V14.01,2013-05-30 02:18:00,
2013-05-29 20:20:00,61.5,61.0,25.25,SW,219,0.0,0.0,98,0.00,,---,2.09,VWS V14.01,2013-05-30 02:20:00,
2013-05-29 20:22:00,61.5,61.0,25.25,SW,219,0.0,0.0,98,0.00,,---,2.09,VWS V14.01,2013-05-30 02:22:00,
2013-05-29 20:24:00,61.5,61.0,25.25,SW,219,0.0,0.0,98,0.00,,---,2.09,VWS V14.01,2013-05-30 02:24:00,
2013-05-29 20:26:00,61.5,61.0,25.25,SW,219,0.0,0.0,98,0.00,,---,2.09,VWS V14.01,2013-05-30 02:26:00,
2013-05-29 20:30:00,61.5,61.0,25.25,SW,219,0.0,0.0,98,0.00,,---,2.09,VWS V14.01,2013-05-30 02:30:00,
2013-05-29 20:32:00,61.5,61.0,25.25,SW,219,0.0,0.0,98,0.00,,---,2.09,VWS V14.01,2013-05-30 02:32:00,
2013-05-29 20:34:00,61.5,61.0,25.25,SW,219,0.0,0.0,98,0.00,,---,2.09,VWS V14.01,2013-05-30 02:34:00,
2013-05-29 20:36:00,61.5,61.0,25.25,SW,219,0.0,0.0,98,0.00,,---,2.09,VWS V14.01,2013-05-30 02:36:00,
2013-05-29 20:38:00,61.5,61.0,25.25,SW,219,0.0,0.0,98,0.00,,---,2.09,VWS V14.01,2013-05-30 02:38:00,
2013-05-29 20:39:00,61.5,61.0,25.25,SW,219,0.0,0.0,98,0.00,,---,2.09,VWS V14.01,2013-05-30 02:39:00,
2013-05-29 20:41:00,61.5,61.0,25.25,SW,219,0.0,0.0,98,0.00,,---,2.09,VWS V14.01,2013-05-30 02:41:00,
2013-05-29 20:45:00,61.5,61.0,25.25,SW,219,0.0,0.0,98,0.00,,---,2.09,VWS V14.01,2013-05-30 02:45:00,
2013-05-29 20:46:00,61.5,61.0,25.25,SW,219,0.0,0.0,98,0.00,,---,2.09,VWS V14.01,2013-05-30 02:46:00,
2013-05-29 20:48:00,61.5,61.0,25.25,SW,219,0.0,0.0,98,0.00,,---,2.09,VWS V14.01,2013-05-30 02:48:00,
2013-05-29 20:49:00,61.7,61.1,25.25,SW,219,0.0,0.0,98,0.00,,---,2.09,VWS V14.01,2013-05-30 02:49:00,
2013-05-29 20:52:00,61.7,61.1,25.25,SW,219,0.0,0.0,98,0.00,,---,2.09,VWS V14.01,2013-05-30 02:52:00,
2013-05-29 20:53:00,61.7,61.1,25.25,SW,219,0.0,0.0,98,0.00,,---,2.09,VWS V14.01,2013-05-30 02:53:00,
2013-05-29 20:54:00,61.7,61.1,25.25,SW,219,0.0,0.0,98,0.00,,---,2.09,VWS V14.01,2013-05-30 02:54:00,
2013-05-29 20:56:00,61.7,61.1,25.25,SW,219,0.0,0.0,98,0.00,,---,2.09,VWS V14.01,2013-05-30 02:56:00,
2013-05-29 21:00:00,61.7,61.1,25.25,SW,219,0.0,0.0,98,0.00,,---,2.09,VWS V14.01,2013-05-30 03:00:00,
2013-05-29 21:02:00,61.7,61.1,25.25,SW,219,0.0,0.0,98,0.00,,---,2.09,VWS V14.01,2013-05-30 03:02:00,
2013-05-29 21:03:00,61.7,61.1,25.25,SW,219,0.0,0.0,98,0.00,,---,2.09,VWS V14.01,2013-05-30 03:03:00,
2013-05-29 21:04:00,61.7,61.1,25.25,SW,219,0.0,0.0,98,0.00,,---,2.09,VWS V14.01,2013-05-30 03:04:00,
2013-05-29 21:07:00,61.9,61.3,25.25,SW,219,0.0,0.0,98,0.00,,---,2.09,VWS V14.01,2013-05-30 03:07:00,
2013-05-29 21:10:00,61.9,61.3,25.25,SW,219,0.0,0.0,98,0.00,,---,2.09,VWS V14.01,2013-05-30 03:10:00,
2013-05-29 21:11:00,61.9,61.3,25.25,SW,219,0.0,0.0,98,0.00,,---,2.09,VWS V14.01,2013-05-30 03:11:00,
2013-05-29 21:12:00,61.9,61.3,25.25,SW,219,0.0,0.0,98,0.00,,---,2.09,VWS V14.01,2013-05-30 03:12:00,
2013-05-29 21:13:00,61.9,61.3,25.25,SW,219,0.0,0.0,98,0.00,,---,2.09,VWS V14.01,2013-05-30 03:13:00,
2013-05-29 21:18:00,61.9,61.3,25.28,SW,219,0.0,0.0,98,0.00,,---,2.09,VWS V14.01,2013-05-30 03:18:00,
2013-05-29 21:20:00,61.9,61.3,25.28,SW,219,0.0,0.0,98,0.00,,---,2.09,VWS V14.01,2013-05-30 03:20:00,
2013-05-29 21:21:00,61.9,61.3,25.28,SW,219,0.0,0.0,98,0.00,,---,2.09,VWS V14.01,2013-05-30 03:21:00,
2013-05-29 21:24:00,61.9,61.3,25.28,SW,219,0.0,0.0,98,0.00,,---,2.09,VWS V14.01,2013-05-30 03:24:00,
2013-05-29 21:26:00,61.9,61.3,25.28,SW,219,0.0,0.0,98,0.00,,---,2.09,VWS V14.01,2013-05-30 03:26:00,
2013-05-29 21:27:00,61.9,61.3,25.28,SW,219,0.0,0.0,98,0.00,,---,2.09,VWS V14.01,2013-05-30 03:27:00,
2013-05-29 21:30:00,62.1,61.5,25.28,SW,219,0.0,0.0,98,0.00,,---,2.09,VWS V14.01,2013-05-30 03:30:00,
2013-05-29 21:31:00,62.1,61.5,25.28,SW,219,0.0,0.0,98,0.00,,---,2.09,VWS V14.01,2013-05-30 03:31:00,
2013-05-29 21:32:00,62.1,61.5,25.28,SW,219,0.0,0.0,98,0.00,,---,2.09,VWS V14.01,2013-05-30 03:32:00,
2013-05-29 21:33:00,62.1,61.5,25.28,SW,219,0.0,0.0,98,0.00,,---,2.09,VWS V14.01,2013-05-30 03:33:00,
2013-05-29 21:35:00,62.1,61.5,25.28,SW,219,0.0,0.0,98,0.00,,---,2.09,VWS V14.01,2013-05-30 03:35:00,
2013-05-29 21:36:00,62.1,61.5,25.28,SW,219,0.0,0.0,98,0.00,,---,2.09,VWS V14.01,2013-05-30 03:36:00,
2013-05-29 21:38:00,62.1,61.5,25.28,SW,219,0.0,0.0,98,0.00,,---,2.09,VWS V14.01,2013-05-30 03:38:00,
2013-05-29 21:41:00,61.9,61.3,25.28,SW,219,0.0,0.0,98,0.00,,---,2.09,VWS V14.01,2013-05-30 03:41:00,
2013-05-29 21:43:00,61.9,61.3,25.28,SW,219,0.0,0.0,98,0.00,,---,2.09,VWS V14.01,2013-05-30 03:43:00,
2013-05-29 21:45:00,61.9,61.3,25.28,SW,219,0.0,0.0,98,0.00,,---,2.09,VWS V14.01,2013-05-30 03:45:00,
2013-05-29 21:46:00,61.9,61.3,25.28,SW,219,0.0,0.0,98,0.00,,---,2.09,VWS V14.01,2013-05-30 03:46:00,
2013-05-29 21:49:00,62.1,61.5,25.28,SW,219,0.0,0.0,98,0.00,,---,2.09,VWS V14.01,2013-05-30 03:49:00,
2013-05-29 21:51:00,62.1,61.5,25.28,SW,219,0.0,0.0,98,0.00,,---,2.09,VWS V14.01,2013-05-30 03:51:00,
2013-05-29 21:52:00,62.1,61.5,25.28,SW,219,0.0,0.0,98,0.00,,---,2.09,VWS V14.01,2013-05-30 03:52:00,
2013-05-29 21:55:00,62.1,61.5,25.28,SW,219,0.0,0.0,98,0.00,,---,2.09,VWS V14.01,2013-05-30 03:55:00,
2013-05-29 21:56:00,62.1,61.5,25.28,SW,219,0.0,0.0,98,0.00,,---,2.09,VWS V14.01,2013-05-30 03:56:00,
2013-05-29 21:57:00,62.1,61.5,25.28,SW,219,0.0,0.0,98,0.00,,---,2.09,VWS V14.01,2013-05-30 03:57:00,
2013-05-29 22:00:00,62.1,61.5,25.28,SW,219,0.0,0.0,98,0.00,,---,2.09,VWS V14.01,2013-05-30 04:00:00,
2013-05-29 22:01:00,62.1,61.5,25.28,SW,219,0.0,0.0,98,0.00,,---,2.09,VWS V14.01,2013-05-30 04:01:00,
2013-05-29 22:02:00,62.1,61.5,25.28,SW,219,0.0,0.0,98,0.00,,---,2.09,VWS V14.01,2013-05-30 04:02:00,
2013-05-29 22:03:00,62.1,61.5,25.28,SW,219,0.0,0.0,98,0.00,,---,2.09,VWS V14.01,2013-05-30 04:03:00,
2013-05-29 22:05:00,62.1,61.5,25.28,SW,219,0.0,0.0,98,0.00,,---,2.09,VWS V14.01,2013-05-30 04:05:00,
2013-05-29 22:06:00,62.1,61.5,25.28,SW,219,0.0,0.0,98,0.00,,---,2.09,VWS V14.01,2013-05-30 04:06:00,
2013-05-29 22:11:00,62.2,61.7,25.28,SW,219,0.0,0.0,98,0.00,,---,2.09,VWS V14.01,2013-05-30 04:11:00,
2013-05-29 22:12:00,62.2,61.7,25.28,SW,219,0.0,0.0,98,0.00,,---,2.09,VWS V14.01,2013-05-30 04:12:00,
2013-05-29 22:13:00,62.2,61.7,25.28,SW,219,0.0,0.0,98,0.00,,---,2.09,VWS V14.01,2013-05-30 04:13:00,
2013-05-29 22:17:00,62.1,61.5,25.28,SW,219,0.0,0.0,98,0.00,,---,2.09,VWS V14.01,2013-05-30 04:17:00,
2013-05-29 22:18:00,62.1,61.5,25.28,SW,219,0.0,0.0,98,0.00,,---,2.09,VWS V14.01,2013-05-30 04:18:00,
2013-05-29 22:19:00,62.1,61.5,25.28,SW,219,0.0,0.0,98,0.00,,---,2.09,VWS V14.01,2013-05-30 04:19:00,
2013-05-29 22:23:00,62.1,61.5,25.28,SW,219,0.0,0.0,98,0.00,,---,2.09,VWS V14.01,2013-05-30 04:23:00,
2013-05-29 22:24:00,62.1,61.5,25.28,SW,219,0.0,0.0,98,0.00,,---,2.09,VWS V14.01,2013-05-30 04:24:00,
2013-05-29 22:26:00,62.1,61.5,25.28,SW,219,0.0,0.0,98,0.00,,---,2.09,VWS V14.01,2013-05-30 04:26:00,
2013-05-29 22:27:00,62.2,61.7,25.28,SW,219,0.0,0.0,98,0.00,,---,2.09,VWS V14.01,2013-05-30 04:27:00,
2013-05-29 22:28:00,62.2,61.7,25.28,SW,219,0.0,0.0,98,0.00,,---,2.09,VWS V14.01,2013-05-30 04:28:00,
2013-05-29 22:30:00,62.2,61.7,25.28,SW,219,0.0,0.0,98,0.00,,---,2.09,VWS V14.01,2013-05-30 04:30:00,
2013-05-29 22:32:00,62.2,61.7,25.28,SW,219,0.0,0.0,98,0.00,,---,2.09,VWS V14.01,2013-05-30 04:32:00,
2013-05-29 22:34:00,62.2,61.7,25.28,SW,219,0.0,0.0,98,0.00,,---,2.09,VWS V14.01,2013-05-30 04:34:00,
2013-05-29 22:36:00,62.4,61.8,25.28,SW,219,0.0,0.0,98,0.00,,---,2.09,VWS V14.01,2013-05-30 04:36:00,
2013-05-29 22:37:00,62.4,61.8,25.28,SW,219,0.0,0.0,98,0.00,,---,2.09,VWS V14.01,2013-05-30 04:37:00,
2013-05-29 22:39:00,62.4,61.8,25.28,SW,219,0.0,0.0,98,0.00,,---,2.09,VWS V14.01,2013-05-30 04:39:00,
2013-05-29 22:42:00,62.4,61.8,25.28,SW,219,0.0,0.0,98,0.00,,---,2.09,VWS V14.01,2013-05-30 04:42:00,
2013-05-29 22:45:00,62.2,61.7,25.28,SW,219,0.0,0.0,98,0.00,,---,2.09,VWS V14.01,2013-05-30 04:45:00,
2013-05-29 22:46:00,62.2,61.7,25.28,SW,219,0.0,0.0,98,0.00,,---,2.09,VWS V14.01,2013-05-30 04:46:00,
2013-05-29 22:48:00,62.2,61.7,25.28,SW,219,0.0,0.0,98,0.00,,---,2.09,VWS V14.01,2013-05-30 04:48:00,
2013-05-29 22:51:00,62.2,61.7,25.28,SW,219,0.0,0.0,98,0.00,,---,2.09,VWS V14.01,2013-05-30 04:51:00,
2013-05-29 22:53:00,62.2,61.7,25.28,SW,219,0.0,0.0,98,0.00,,---,2.09,VWS V14.01,2013-05-30 04:53:00,
2013-05-29 22:54:00,62.2,61.7,25.28,SW,219,0.0,0.0,98,0.00,,---,2.09,VWS V14.01,2013-05-30 04:54:00,
2013-05-29 22:57:00,62.2,61.7,25.28,SW,219,0.0,0.0,98,0.00,,---,2.09,VWS V14.01,2013-05-30 04:57:00,
2013-05-29 23:00:00,62.2,61.7,25.28,SW,219,0.0,0.0,98,0.00,,---,2.09,VWS V14.01,2013-05-30 05:00:00,
2013-05-29 23:01:00,62.2,61.7,25.28,SW,219,0.0,0.0,98,0.00,,---,2.09,VWS V14.01,2013-05-30 05:01:00,
2013-05-29 23:04:00,62.1,61.5,25.28,SW,219,0.0,0.0,98,0.00,,---,2.09,VWS V14.01,2013-05-30 05:04:00,
2013-05-29 23:06:00,62.1,61.5,25.28,SW,219,0.0,0.0,98,0.00,,---,2.09,VWS V14.01,2013-05-30 05:06:00,
2013-05-29 23:07:00,62.1,61.5,25.28,SW,219,0.0,0.0,98,0.00,,---,2.09,VWS V14.01,2013-05-30 05:07:00,
2013-05-29 23:10:00,62.1,61.5,25.28,SW,219,0.0,0.0,98,0.00,,---,2.09,VWS V14.01,2013-05-30 05:10:00,
2013-05-29 23:13:00,62.1,61.5,25.28,SW,219,0.0,0.0,98,0.00,,---,2.09,VWS V14.01,2013-05-30 05:13:00,
2013-05-29 23:14:00,62.1,61.5,25.28,SW,219,0.0,0.0,98,0.00,,---,2.09,VWS V14.01,2013-05-30 05:14:00,
2013-05-29 23:17:00,62.1,61.5,25.28,SW,219,0.0,0.0,98,0.00,,---,2.09,VWS V14.01,2013-05-30 05:17:00,
2013-05-29 23:18:00,62.1,61.5,25.28,SW,219,0.0,0.0,98,0.00,,---,2.09,VWS V14.01,2013-05-30 05:18:00,
2013-05-29 23:23:00,61.9,61.3,25.28,SW,219,0.0,0.0,98,0.00,,---,2.09,VWS V14.01,2013-05-30 05:23:00,
2013-05-29 23:25:00,61.9,61.3,25.28,SW,219,0.0,0.0,98,0.00,,---,2.09,VWS V14.01,2013-05-30 05:25:00,
2013-05-29 23:26:00,61.9,61.3,25.28,SW,219,0.0,0.0,98,0.00,,---,2.09,VWS V14.01,2013-05-30 05:26:00,
2013-05-29 23:28:00,61.9,61.3,25.28,SW,219,0.0,0.0,98,0.00,,---,2.09,VWS V14.01,2013-05-30 05:28:00,
2013-05-29 23:29:00,61.9,61.3,25.28,SW,219,0.0,0.0,98,0.00,,---,2.09,VWS V14.01,2013-05-30 05:29:00,
2013-05-29 23:30:00,61.9,61.3,25.28,SW,219,0.0,0.0,98,0.00,,---,2.09,VWS V14.01,2013-05-30 05:30:00,
2013-05-29 23:31:00,61.9,61.3,25.28,SW,219,0.0,0.0,98,0.00,,---,2.09,VWS V14.01,2013-05-30 05:31:00,
2013-05-29 23:34:00,62.1,61.5,25.28,SW,219,0.0,0.0,98,0.00,,---,2.09,VWS V14.01,2013-05-30 05:34:00,
2013-05-29 23:36:00,62.1,61.5,25.28,SW,219,0.0,0.0,98,0.00,,---,2.09,VWS V14.01,2013-05-30 05:36:00,
2013-05-29 23:40:00,62.1,61.5,25.28,SW,219,0.0,0.0,98,0.00,,---,2.09,VWS V14.01,2013-05-30 05:40:00,
2013-05-29 23:42:00,62.1,61.5,25.28,SW,219,0.0,0.0,98,0.00,,---,2.09,VWS V14.01,2013-05-30 05:42:00,
2013-05-29 23:45:00,62.1,61.5,25.28,SW,219,0.0,0.0,98,0.00,,---,2.09,VWS V14.01,2013-05-30 05:45:00,
2013-05-29 23:46:00,61.9,61.3,25.28,SW,219,0.0,0.0,98,0.00,,---,2.09,VWS V14.01,2013-05-30 05:46:00,
2013-05-29 23:47:00,61.9,61.3,25.28,SW,219,0.0,0.0,98,0.00,,---,2.09,VWS V14.01,2013-05-30 05:47:00,
2013-05-29 23:49:00,61.9,61.3,25.28,SW,219,0.0,0.0,98,0.00,,---,2.09,VWS V14.01,2013-05-30 05:49:00,
2013-05-29 23:51:00,61.9,61.3,25.28,SW,219,0.0,0.0,98,0.00,,---,2.09,VWS V14.01,2013-05-30 05:51:00,
2013-05-29 23:52:00,61.7,61.1,25.28,SW,219,0.0,0.0,98,0.00,,---,2.09,VWS V14.01,2013-05-30 05:52:00,
2013-05-29 23:53:00,61.7,61.1,25.28,SW,219,0.0,0.0,98,0.00,,---,2.09,VWS V14.01,2013-05-30 05:53:00,
2013-05-29 23:54:00,61.7,61.1,25.28,SW,219,0.0,0.0,98,0.00,,---,2.09,VWS V14.01,2013-05-30 05:54:00,
2013-05-29 23:57:00,61.7,61.1,25.28,SW,219,0.0,0.0,98,0.00,,---,2.09,VWS V14.01,2013-05-30 05:57:00,
2013-05-29 23:58:00,61.7,61.1,25.28,SW,219,0.0,0.0,98,0.00,,---,2.09,VWS V14.01,2013-05-30 05:58:00,
2013-05-29 23:59:00,61.5,61.0,25.28,SW,219,0.0,0.0,98,0.00,,---,2.09,VWS V14.01,2013-05-30 05:59:00,